<?xml version="1.0" encoding="UTF-8" standalone="no" ?>
<gpx xmlns="http://www.topografix.com/GPX/1/1" xmlns:xsi="http://www.w3.org/2001/XMLSchema-instance" xsi:schemaLocation="http://www.topografix.com/GPX/1/1 http://www.topografix.com/GPX/1/1/gpx.xsd" version="1.1" creator="VisuGPX - https://www.visugpx.com">
  <metadata>
    <name>Barrage de Villerest G4</name>
    <desc><![CDATA[grp_trc:]]></desc>
  </metadata>
  <trk>
    <name><![CDATA[traceg4reco]]></name>
    <desc><![CDATA[comment ...]]></desc>
    <extensions>
      <line xmlns="http://www.topografix.com/GPX/gpx_style/0/2">
        <color>0000FF</color>
        <width>4</width>
      </line>
    </extensions>
    <trkseg>
      <trkpt lat="45.97523" lon="4.0386">
        <ele>382</ele>
        <time>2023-11-07T07:54:36Z</time>
      </trkpt>
      <trkpt lat="45.97517" lon="4.03863">
        <ele>374</ele>
        <time>2023-11-07T07:56:29Z</time>
      </trkpt>
      <trkpt lat="45.97525" lon="4.03866">
        <ele>376</ele>
        <time>2023-11-07T07:57:32Z</time>
      </trkpt>
      <trkpt lat="45.97536" lon="4.03858">
        <ele>376</ele>
        <time>2023-11-07T07:57:45Z</time>
      </trkpt>
      <trkpt lat="45.97542" lon="4.03848">
        <ele>377</ele>
        <time>2023-11-07T07:57:53Z</time>
      </trkpt>
      <trkpt lat="45.97541" lon="4.03837">
        <ele>378</ele>
        <time>2023-11-07T07:58:00Z</time>
      </trkpt>
      <trkpt lat="45.9753" lon="4.03796">
        <ele>378</ele>
        <time>2023-11-07T07:58:28Z</time>
      </trkpt>
      <trkpt lat="45.97533" lon="4.03775">
        <ele>378</ele>
        <time>2023-11-07T07:58:42Z</time>
      </trkpt>
      <trkpt lat="45.97562" lon="4.03747">
        <ele>374</ele>
        <time>2023-11-07T07:59:12Z</time>
      </trkpt>
      <trkpt lat="45.9757" lon="4.03706">
        <ele>373</ele>
        <time>2023-11-07T07:59:54Z</time>
      </trkpt>
      <trkpt lat="45.97569" lon="4.03709">
        <ele>373</ele>
        <time>2023-11-07T07:59:57Z</time>
      </trkpt>
      <trkpt lat="45.97563" lon="4.0369">
        <ele>372</ele>
        <time>2023-11-07T08:00:12Z</time>
      </trkpt>
      <trkpt lat="45.97548" lon="4.03671">
        <ele>371</ele>
        <time>2023-11-07T08:00:26Z</time>
      </trkpt>
      <trkpt lat="45.97504" lon="4.03648">
        <ele>369</ele>
        <time>2023-11-07T08:01:00Z</time>
      </trkpt>
      <trkpt lat="45.97486" lon="4.03605">
        <ele>365</ele>
        <time>2023-11-07T08:01:27Z</time>
      </trkpt>
      <trkpt lat="45.97469" lon="4.03576">
        <ele>364</ele>
        <time>2023-11-07T08:01:46Z</time>
      </trkpt>
      <trkpt lat="45.9745" lon="4.03516">
        <ele>363</ele>
        <time>2023-11-07T08:02:21Z</time>
      </trkpt>
      <trkpt lat="45.97463" lon="4.03457">
        <ele>362</ele>
        <time>2023-11-07T08:02:53Z</time>
      </trkpt>
      <trkpt lat="45.97476" lon="4.03422">
        <ele>361</ele>
        <time>2023-11-07T08:03:13Z</time>
      </trkpt>
      <trkpt lat="45.97499" lon="4.03396">
        <ele>358</ele>
        <time>2023-11-07T08:03:39Z</time>
      </trkpt>
      <trkpt lat="45.97515" lon="4.03393">
        <ele>359</ele>
        <time>2023-11-07T08:03:50Z</time>
      </trkpt>
      <trkpt lat="45.97535" lon="4.03396">
        <ele>360</ele>
        <time>2023-11-07T08:04:04Z</time>
      </trkpt>
      <trkpt lat="45.97552" lon="4.03406">
        <ele>361</ele>
        <time>2023-11-07T08:04:16Z</time>
      </trkpt>
      <trkpt lat="45.97574" lon="4.03442">
        <ele>362</ele>
        <time>2023-11-07T08:04:40Z</time>
      </trkpt>
      <trkpt lat="45.97597" lon="4.03522">
        <ele>358</ele>
        <time>2023-11-07T08:05:25Z</time>
      </trkpt>
      <trkpt lat="45.97618" lon="4.03619">
        <ele>357</ele>
        <time>2023-11-07T08:06:19Z</time>
      </trkpt>
      <trkpt lat="45.97628" lon="4.03645">
        <ele>354</ele>
        <time>2023-11-07T08:06:34Z</time>
      </trkpt>
      <trkpt lat="45.97642" lon="4.03706">
        <ele>352</ele>
        <time>2023-11-07T08:07:10Z</time>
      </trkpt>
      <trkpt lat="45.97639" lon="4.03755">
        <ele>352</ele>
        <time>2023-11-07T08:07:36Z</time>
      </trkpt>
      <trkpt lat="45.97644" lon="4.03783">
        <ele>351</ele>
        <time>2023-11-07T08:07:52Z</time>
      </trkpt>
      <trkpt lat="45.97661" lon="4.0382">
        <ele>350</ele>
        <time>2023-11-07T08:08:16Z</time>
      </trkpt>
      <trkpt lat="45.97683" lon="4.03852">
        <ele>346</ele>
        <time>2023-11-07T08:08:40Z</time>
      </trkpt>
      <trkpt lat="45.97694" lon="4.03859">
        <ele>345</ele>
        <time>2023-11-07T08:08:46Z</time>
      </trkpt>
      <trkpt lat="45.97733" lon="4.03913">
        <ele>346</ele>
        <time>2023-11-07T08:09:29Z</time>
      </trkpt>
      <trkpt lat="45.97777" lon="4.04035">
        <ele>336</ele>
        <time>2023-11-07T08:10:43Z</time>
      </trkpt>
      <trkpt lat="45.97779" lon="4.04051">
        <ele>337</ele>
        <time>2023-11-07T08:10:55Z</time>
      </trkpt>
      <trkpt lat="45.97804" lon="4.04077">
        <ele>337</ele>
        <time>2023-11-07T08:11:15Z</time>
      </trkpt>
      <trkpt lat="45.97817" lon="4.04084">
        <ele>339</ele>
        <time>2023-11-07T08:11:26Z</time>
      </trkpt>
      <trkpt lat="45.97827" lon="4.04084">
        <ele>339</ele>
        <time>2023-11-07T08:11:35Z</time>
      </trkpt>
      <trkpt lat="45.97863" lon="4.04077">
        <ele>339</ele>
        <time>2023-11-07T08:12:01Z</time>
      </trkpt>
      <trkpt lat="45.97909" lon="4.04047">
        <ele>339</ele>
        <time>2023-11-07T08:12:33Z</time>
      </trkpt>
      <trkpt lat="45.97929" lon="4.04049">
        <ele>341</ele>
        <time>2023-11-07T08:12:51Z</time>
      </trkpt>
      <trkpt lat="45.97952" lon="4.0406">
        <ele>340</ele>
        <time>2023-11-07T08:13:10Z</time>
      </trkpt>
      <trkpt lat="45.97962" lon="4.0407">
        <ele>339</ele>
        <time>2023-11-07T08:13:18Z</time>
      </trkpt>
      <trkpt lat="45.97972" lon="4.04072">
        <ele>339</ele>
        <time>2023-11-07T08:13:24Z</time>
      </trkpt>
      <trkpt lat="45.97979" lon="4.04084">
        <ele>338</ele>
        <time>2023-11-07T08:13:32Z</time>
      </trkpt>
      <trkpt lat="45.98004" lon="4.04094">
        <ele>334</ele>
        <time>2023-11-07T08:13:51Z</time>
      </trkpt>
      <trkpt lat="45.98011" lon="4.041">
        <ele>334</ele>
        <time>2023-11-07T08:13:57Z</time>
      </trkpt>
      <trkpt lat="45.98062" lon="4.0412">
        <ele>335</ele>
        <time>2023-11-07T08:14:39Z</time>
      </trkpt>
      <trkpt lat="45.98092" lon="4.04125">
        <ele>334</ele>
        <time>2023-11-07T08:14:59Z</time>
      </trkpt>
      <trkpt lat="45.98111" lon="4.04137">
        <ele>331</ele>
        <time>2023-11-07T08:15:14Z</time>
      </trkpt>
      <trkpt lat="45.98134" lon="4.04163">
        <ele>328</ele>
        <time>2023-11-07T08:15:36Z</time>
      </trkpt>
      <trkpt lat="45.98148" lon="4.04172">
        <ele>330</ele>
        <time>2023-11-07T08:15:48Z</time>
      </trkpt>
      <trkpt lat="45.98168" lon="4.04193">
        <ele>332</ele>
        <time>2023-11-07T08:16:08Z</time>
      </trkpt>
      <trkpt lat="45.98174" lon="4.04194">
        <ele>331</ele>
        <time>2023-11-07T08:16:11Z</time>
      </trkpt>
      <trkpt lat="45.98193" lon="4.04209">
        <ele>330</ele>
        <time>2023-11-07T08:16:25Z</time>
      </trkpt>
      <trkpt lat="45.98204" lon="4.04209">
        <ele>328</ele>
        <time>2023-11-07T08:16:33Z</time>
      </trkpt>
      <trkpt lat="45.98237" lon="4.04235">
        <ele>325</ele>
        <time>2023-11-07T08:17:03Z</time>
      </trkpt>
      <trkpt lat="45.98251" lon="4.0425">
        <ele>326</ele>
        <time>2023-11-07T08:17:16Z</time>
      </trkpt>
      <trkpt lat="45.98263" lon="4.04268">
        <ele>325</ele>
        <time>2023-11-07T08:17:28Z</time>
      </trkpt>
      <trkpt lat="45.98267" lon="4.04325">
        <ele>325</ele>
        <time>2023-11-07T08:18:01Z</time>
      </trkpt>
      <trkpt lat="45.9827" lon="4.04331">
        <ele>326</ele>
        <time>2023-11-07T08:18:05Z</time>
      </trkpt>
      <trkpt lat="45.9827" lon="4.0436">
        <ele>326</ele>
        <time>2023-11-07T08:18:20Z</time>
      </trkpt>
      <trkpt lat="45.98266" lon="4.04385">
        <ele>325</ele>
        <time>2023-11-07T08:18:35Z</time>
      </trkpt>
      <trkpt lat="45.98268" lon="4.04398">
        <ele>326</ele>
        <time>2023-11-07T08:18:42Z</time>
      </trkpt>
      <trkpt lat="45.98262" lon="4.04443">
        <ele>327</ele>
        <time>2023-11-07T08:19:08Z</time>
      </trkpt>
      <trkpt lat="45.98259" lon="4.04503">
        <ele>322</ele>
        <time>2023-11-07T08:19:42Z</time>
      </trkpt>
      <trkpt lat="45.98233" lon="4.04556">
        <ele>327</ele>
        <time>2023-11-07T08:20:15Z</time>
      </trkpt>
      <trkpt lat="45.98225" lon="4.04564">
        <ele>328</ele>
        <time>2023-11-07T08:20:20Z</time>
      </trkpt>
      <trkpt lat="45.98216" lon="4.04583">
        <ele>330</ele>
        <time>2023-11-07T08:20:34Z</time>
      </trkpt>
      <trkpt lat="45.98198" lon="4.046">
        <ele>333</ele>
        <time>2023-11-07T08:20:53Z</time>
      </trkpt>
      <trkpt lat="45.98152" lon="4.04685">
        <ele>336</ele>
        <time>2023-11-07T08:21:54Z</time>
      </trkpt>
      <trkpt lat="45.98148" lon="4.04688">
        <ele>335</ele>
        <time>2023-11-07T08:21:56Z</time>
      </trkpt>
      <trkpt lat="45.98114" lon="4.04758">
        <ele>336</ele>
        <time>2023-11-07T08:22:45Z</time>
      </trkpt>
      <trkpt lat="45.9811" lon="4.04799">
        <ele>337</ele>
        <time>2023-11-07T08:23:07Z</time>
      </trkpt>
      <trkpt lat="45.98118" lon="4.04828">
        <ele>341</ele>
        <time>2023-11-07T08:23:22Z</time>
      </trkpt>
      <trkpt lat="45.98124" lon="4.04837">
        <ele>343</ele>
        <time>2023-11-07T08:23:28Z</time>
      </trkpt>
      <trkpt lat="45.98136" lon="4.0484">
        <ele>344</ele>
        <time>2023-11-07T08:23:38Z</time>
      </trkpt>
      <trkpt lat="45.98164" lon="4.04831">
        <ele>343</ele>
        <time>2023-11-07T08:23:58Z</time>
      </trkpt>
      <trkpt lat="45.9818" lon="4.04811">
        <ele>342</ele>
        <time>2023-11-07T08:24:13Z</time>
      </trkpt>
      <trkpt lat="45.9818" lon="4.04805">
        <ele>342</ele>
        <time>2023-11-07T08:24:16Z</time>
      </trkpt>
      <trkpt lat="45.98201" lon="4.04774">
        <ele>344</ele>
        <time>2023-11-07T08:24:39Z</time>
      </trkpt>
      <trkpt lat="45.98224" lon="4.04754">
        <ele>344</ele>
        <time>2023-11-07T08:25:01Z</time>
      </trkpt>
      <trkpt lat="45.98251" lon="4.04755">
        <ele>344</ele>
        <time>2023-11-07T08:25:24Z</time>
      </trkpt>
      <trkpt lat="45.98268" lon="4.04762">
        <ele>344</ele>
        <time>2023-11-07T08:25:37Z</time>
      </trkpt>
      <trkpt lat="45.98296" lon="4.04784">
        <ele>344</ele>
        <time>2023-11-07T08:25:59Z</time>
      </trkpt>
      <trkpt lat="45.9834" lon="4.04857">
        <ele>344</ele>
        <time>2023-11-07T08:26:51Z</time>
      </trkpt>
      <trkpt lat="45.98357" lon="4.0488">
        <ele>344</ele>
        <time>2023-11-07T08:27:09Z</time>
      </trkpt>
      <trkpt lat="45.9836" lon="4.04891">
        <ele>343</ele>
        <time>2023-11-07T08:27:16Z</time>
      </trkpt>
      <trkpt lat="45.98371" lon="4.04908">
        <ele>346</ele>
        <time>2023-11-07T08:27:29Z</time>
      </trkpt>
      <trkpt lat="45.98393" lon="4.04929">
        <ele>348</ele>
        <time>2023-11-07T08:27:48Z</time>
      </trkpt>
      <trkpt lat="45.9841" lon="4.04937">
        <ele>351</ele>
        <time>2023-11-07T08:28:05Z</time>
      </trkpt>
      <trkpt lat="45.9843" lon="4.04936">
        <ele>347</ele>
        <time>2023-11-07T08:28:19Z</time>
      </trkpt>
      <trkpt lat="45.98441" lon="4.04943">
        <ele>351</ele>
        <time>2023-11-07T08:28:30Z</time>
      </trkpt>
      <trkpt lat="45.98462" lon="4.04942">
        <ele>353</ele>
        <time>2023-11-07T08:28:45Z</time>
      </trkpt>
      <trkpt lat="45.98479" lon="4.04946">
        <ele>354</ele>
        <time>2023-11-07T08:29:00Z</time>
      </trkpt>
      <trkpt lat="45.985" lon="4.04957">
        <ele>355</ele>
        <time>2023-11-07T08:29:15Z</time>
      </trkpt>
      <trkpt lat="45.98521" lon="4.04985">
        <ele>357</ele>
        <time>2023-11-07T08:29:38Z</time>
      </trkpt>
      <trkpt lat="45.98526" lon="4.05028">
        <ele>356</ele>
        <time>2023-11-07T08:30:03Z</time>
      </trkpt>
      <trkpt lat="45.98514" lon="4.05093">
        <ele>354</ele>
        <time>2023-11-07T08:30:38Z</time>
      </trkpt>
      <trkpt lat="45.98519" lon="4.05119">
        <ele>357</ele>
        <time>2023-11-07T08:30:55Z</time>
      </trkpt>
      <trkpt lat="45.98536" lon="4.05146">
        <ele>356</ele>
        <time>2023-11-07T08:31:16Z</time>
      </trkpt>
      <trkpt lat="45.98552" lon="4.05138">
        <ele>358</ele>
        <time>2023-11-07T08:31:28Z</time>
      </trkpt>
      <trkpt lat="45.98558" lon="4.05131">
        <ele>359</ele>
        <time>2023-11-07T08:31:35Z</time>
      </trkpt>
      <trkpt lat="45.98586" lon="4.05128">
        <ele>361</ele>
        <time>2023-11-07T08:31:55Z</time>
      </trkpt>
      <trkpt lat="45.98603" lon="4.05133">
        <ele>361</ele>
        <time>2023-11-07T08:32:10Z</time>
      </trkpt>
      <trkpt lat="45.9861" lon="4.0513">
        <ele>363</ele>
        <time>2023-11-07T08:32:17Z</time>
      </trkpt>
      <trkpt lat="45.98624" lon="4.05117">
        <ele>365</ele>
        <time>2023-11-07T08:32:36Z</time>
      </trkpt>
      <trkpt lat="45.98627" lon="4.05121">
        <ele>366</ele>
        <time>2023-11-07T08:32:41Z</time>
      </trkpt>
      <trkpt lat="45.98627" lon="4.05134">
        <ele>369</ele>
        <time>2023-11-07T08:32:49Z</time>
      </trkpt>
      <trkpt lat="45.98646" lon="4.05153">
        <ele>376</ele>
        <time>2023-11-07T08:33:18Z</time>
      </trkpt>
      <trkpt lat="45.98656" lon="4.05148">
        <ele>381</ele>
        <time>2023-11-07T08:33:31Z</time>
      </trkpt>
      <trkpt lat="45.98659" lon="4.05143">
        <ele>382</ele>
        <time>2023-11-07T08:34:16Z</time>
      </trkpt>
      <trkpt lat="45.98659" lon="4.05134">
        <ele>382</ele>
        <time>2023-11-07T08:34:21Z</time>
      </trkpt>
      <trkpt lat="45.98678" lon="4.05075">
        <ele>380</ele>
        <time>2023-11-07T08:36:24Z</time>
      </trkpt>
      <trkpt lat="45.98684" lon="4.05088">
        <ele>382</ele>
        <time>2023-11-07T08:36:32Z</time>
      </trkpt>
      <trkpt lat="45.98686" lon="4.0511">
        <ele>383</ele>
        <time>2023-11-07T08:36:45Z</time>
      </trkpt>
      <trkpt lat="45.98692" lon="4.05093">
        <ele>384</ele>
        <time>2023-11-07T08:37:22Z</time>
      </trkpt>
      <trkpt lat="45.98695" lon="4.05092">
        <ele>384</ele>
        <time>2023-11-07T08:37:29Z</time>
      </trkpt>
      <trkpt lat="45.98698" lon="4.05094">
        <ele>384</ele>
        <time>2023-11-07T08:37:33Z</time>
      </trkpt>
      <trkpt lat="45.98703" lon="4.05092">
        <ele>384</ele>
        <time>2023-11-07T08:38:08Z</time>
      </trkpt>
      <trkpt lat="45.98732" lon="4.05119">
        <ele>381</ele>
        <time>2023-11-07T08:38:37Z</time>
      </trkpt>
      <trkpt lat="45.98735" lon="4.05117">
        <ele>381</ele>
        <time>2023-11-07T08:38:40Z</time>
      </trkpt>
      <trkpt lat="45.98758" lon="4.05125">
        <ele>379</ele>
        <time>2023-11-07T08:38:57Z</time>
      </trkpt>
      <trkpt lat="45.98784" lon="4.05161">
        <ele>379</ele>
        <time>2023-11-07T08:39:25Z</time>
      </trkpt>
      <trkpt lat="45.98791" lon="4.05166">
        <ele>378</ele>
        <time>2023-11-07T08:39:41Z</time>
      </trkpt>
      <trkpt lat="45.98795" lon="4.05163">
        <ele>377</ele>
        <time>2023-11-07T08:39:46Z</time>
      </trkpt>
      <trkpt lat="45.98816" lon="4.05166">
        <ele>376</ele>
        <time>2023-11-07T08:40:00Z</time>
      </trkpt>
      <trkpt lat="45.98845" lon="4.05156">
        <ele>379</ele>
        <time>2023-11-07T08:40:26Z</time>
      </trkpt>
      <trkpt lat="45.98865" lon="4.05161">
        <ele>376</ele>
        <time>2023-11-07T08:40:42Z</time>
      </trkpt>
      <trkpt lat="45.98874" lon="4.05167">
        <ele>379</ele>
        <time>2023-11-07T08:40:53Z</time>
      </trkpt>
      <trkpt lat="45.9887" lon="4.05178">
        <ele>382</ele>
        <time>2023-11-07T08:41:00Z</time>
      </trkpt>
      <trkpt lat="45.98862" lon="4.05184">
        <ele>383</ele>
        <time>2023-11-07T08:41:08Z</time>
      </trkpt>
      <trkpt lat="45.98856" lon="4.05179">
        <ele>385</ele>
        <time>2023-11-07T08:42:05Z</time>
      </trkpt>
      <trkpt lat="45.98866" lon="4.05178">
        <ele>384</ele>
        <time>2023-11-07T08:42:36Z</time>
      </trkpt>
      <trkpt lat="45.98892" lon="4.05169">
        <ele>376</ele>
        <time>2023-11-07T08:42:57Z</time>
      </trkpt>
      <trkpt lat="45.98911" lon="4.05171">
        <ele>374</ele>
        <time>2023-11-07T08:43:12Z</time>
      </trkpt>
      <trkpt lat="45.9893" lon="4.05196">
        <ele>373</ele>
        <time>2023-11-07T08:43:30Z</time>
      </trkpt>
      <trkpt lat="45.98933" lon="4.05207">
        <ele>372</ele>
        <time>2023-11-07T08:43:36Z</time>
      </trkpt>
      <trkpt lat="45.98932" lon="4.05232">
        <ele>371</ele>
        <time>2023-11-07T08:43:49Z</time>
      </trkpt>
      <trkpt lat="45.98928" lon="4.05247">
        <ele>371</ele>
        <time>2023-11-07T08:43:58Z</time>
      </trkpt>
      <trkpt lat="45.98919" lon="4.05253">
        <ele>372</ele>
        <time>2023-11-07T08:44:09Z</time>
      </trkpt>
      <trkpt lat="45.98919" lon="4.05263">
        <ele>371</ele>
        <time>2023-11-07T08:44:15Z</time>
      </trkpt>
      <trkpt lat="45.98929" lon="4.05274">
        <ele>372</ele>
        <time>2023-11-07T08:44:23Z</time>
      </trkpt>
      <trkpt lat="45.9894" lon="4.05277">
        <ele>371</ele>
        <time>2023-11-07T08:44:34Z</time>
      </trkpt>
      <trkpt lat="45.98949" lon="4.05272">
        <ele>369</ele>
        <time>2023-11-07T08:44:42Z</time>
      </trkpt>
      <trkpt lat="45.98965" lon="4.05211">
        <ele>365</ele>
        <time>2023-11-07T08:45:16Z</time>
      </trkpt>
      <trkpt lat="45.98961" lon="4.05182">
        <ele>362</ele>
        <time>2023-11-07T08:45:30Z</time>
      </trkpt>
      <trkpt lat="45.98962" lon="4.05171">
        <ele>362</ele>
        <time>2023-11-07T08:45:36Z</time>
      </trkpt>
      <trkpt lat="45.98958" lon="4.05141">
        <ele>359</ele>
        <time>2023-11-07T08:45:51Z</time>
      </trkpt>
      <trkpt lat="45.9894" lon="4.05121">
        <ele>356</ele>
        <time>2023-11-07T08:46:08Z</time>
      </trkpt>
      <trkpt lat="45.98936" lon="4.05112">
        <ele>349</ele>
        <time>2023-11-07T08:46:13Z</time>
      </trkpt>
      <trkpt lat="45.98924" lon="4.05105">
        <ele>350</ele>
        <time>2023-11-07T08:46:22Z</time>
      </trkpt>
      <trkpt lat="45.98901" lon="4.05098">
        <ele>352</ele>
        <time>2023-11-07T08:46:42Z</time>
      </trkpt>
      <trkpt lat="45.98889" lon="4.05098">
        <ele>351</ele>
        <time>2023-11-07T08:46:50Z</time>
      </trkpt>
      <trkpt lat="45.98877" lon="4.05092">
        <ele>351</ele>
        <time>2023-11-07T08:46:57Z</time>
      </trkpt>
      <trkpt lat="45.98856" lon="4.05092">
        <ele>350</ele>
        <time>2023-11-07T08:47:12Z</time>
      </trkpt>
      <trkpt lat="45.98847" lon="4.05087">
        <ele>348</ele>
        <time>2023-11-07T08:47:18Z</time>
      </trkpt>
      <trkpt lat="45.98819" lon="4.05082">
        <ele>346</ele>
        <time>2023-11-07T08:47:41Z</time>
      </trkpt>
      <trkpt lat="45.98778" lon="4.05023">
        <ele>340</ele>
        <time>2023-11-07T08:48:20Z</time>
      </trkpt>
      <trkpt lat="45.98761" lon="4.05008">
        <ele>337</ele>
        <time>2023-11-07T08:48:37Z</time>
      </trkpt>
      <trkpt lat="45.98747" lon="4.05">
        <ele>339</ele>
        <time>2023-11-07T08:48:47Z</time>
      </trkpt>
      <trkpt lat="45.98743" lon="4.05">
        <ele>338</ele>
        <time>2023-11-07T08:48:50Z</time>
      </trkpt>
      <trkpt lat="45.98737" lon="4.04995">
        <ele>336</ele>
        <time>2023-11-07T08:48:55Z</time>
      </trkpt>
      <trkpt lat="45.98712" lon="4.04988">
        <ele>333</ele>
        <time>2023-11-07T08:49:14Z</time>
      </trkpt>
      <trkpt lat="45.98699" lon="4.0498">
        <ele>332</ele>
        <time>2023-11-07T08:49:23Z</time>
      </trkpt>
      <trkpt lat="45.98692" lon="4.0498">
        <ele>332</ele>
        <time>2023-11-07T08:49:28Z</time>
      </trkpt>
      <trkpt lat="45.98684" lon="4.04974">
        <ele>330</ele>
        <time>2023-11-07T08:49:36Z</time>
      </trkpt>
      <trkpt lat="45.9868" lon="4.04974">
        <ele>330</ele>
        <time>2023-11-07T08:49:41Z</time>
      </trkpt>
      <trkpt lat="45.98667" lon="4.04961">
        <ele>327</ele>
        <time>2023-11-07T08:49:51Z</time>
      </trkpt>
      <trkpt lat="45.9864" lon="4.04881">
        <ele>331</ele>
        <time>2023-11-07T08:50:37Z</time>
      </trkpt>
      <trkpt lat="45.98633" lon="4.04841">
        <ele>330</ele>
        <time>2023-11-07T08:51:02Z</time>
      </trkpt>
      <trkpt lat="45.9863" lon="4.04817">
        <ele>330</ele>
        <time>2023-11-07T08:51:16Z</time>
      </trkpt>
      <trkpt lat="45.9863" lon="4.04796">
        <ele>329</ele>
        <time>2023-11-07T08:51:27Z</time>
      </trkpt>
      <trkpt lat="45.98633" lon="4.04777">
        <ele>329</ele>
        <time>2023-11-07T08:51:37Z</time>
      </trkpt>
      <trkpt lat="45.98634" lon="4.04748">
        <ele>328</ele>
        <time>2023-11-07T08:51:50Z</time>
      </trkpt>
      <trkpt lat="45.98654" lon="4.04682">
        <ele>325</ele>
        <time>2023-11-07T08:52:29Z</time>
      </trkpt>
      <trkpt lat="45.98738" lon="4.04487">
        <ele>327</ele>
        <time>2023-11-07T08:54:35Z</time>
      </trkpt>
      <trkpt lat="45.98771" lon="4.04419">
        <ele>326</ele>
        <time>2023-11-07T08:55:18Z</time>
      </trkpt>
      <trkpt lat="45.98774" lon="4.04418">
        <ele>326</ele>
        <time>2023-11-07T08:55:21Z</time>
      </trkpt>
      <trkpt lat="45.98777" lon="4.04421">
        <ele>326</ele>
        <time>2023-11-07T08:55:24Z</time>
      </trkpt>
      <trkpt lat="45.98785" lon="4.04451">
        <ele>324</ele>
        <time>2023-11-07T08:55:53Z</time>
      </trkpt>
      <trkpt lat="45.98776" lon="4.04498">
        <ele>325</ele>
        <time>2023-11-07T08:56:21Z</time>
      </trkpt>
      <trkpt lat="45.98771" lon="4.04505">
        <ele>324</ele>
        <time>2023-11-07T08:56:27Z</time>
      </trkpt>
      <trkpt lat="45.98758" lon="4.04556">
        <ele>321</ele>
        <time>2023-11-07T08:56:55Z</time>
      </trkpt>
      <trkpt lat="45.98755" lon="4.04579">
        <ele>320</ele>
        <time>2023-11-07T08:57:06Z</time>
      </trkpt>
      <trkpt lat="45.98761" lon="4.04606">
        <ele>319</ele>
        <time>2023-11-07T08:57:20Z</time>
      </trkpt>
      <trkpt lat="45.9878" lon="4.04615">
        <ele>317</ele>
        <time>2023-11-07T08:57:34Z</time>
      </trkpt>
      <trkpt lat="45.98804" lon="4.04621">
        <ele>314</ele>
        <time>2023-11-07T08:57:55Z</time>
      </trkpt>
      <trkpt lat="45.98807" lon="4.04628">
        <ele>314</ele>
        <time>2023-11-07T08:57:59Z</time>
      </trkpt>
      <trkpt lat="45.98809" lon="4.04656">
        <ele>310</ele>
        <time>2023-11-07T08:58:12Z</time>
      </trkpt>
      <trkpt lat="45.98812" lon="4.04661">
        <ele>311</ele>
        <time>2023-11-07T08:58:16Z</time>
      </trkpt>
      <trkpt lat="45.98824" lon="4.04663">
        <ele>312</ele>
        <time>2023-11-07T08:58:27Z</time>
      </trkpt>
      <trkpt lat="45.9884" lon="4.04662">
        <ele>311</ele>
        <time>2023-11-07T08:58:45Z</time>
      </trkpt>
      <trkpt lat="45.98875" lon="4.04658">
        <ele>304</ele>
        <time>2023-11-07T08:59:11Z</time>
      </trkpt>
      <trkpt lat="45.98891" lon="4.04665">
        <ele>303</ele>
        <time>2023-11-07T08:59:26Z</time>
      </trkpt>
      <trkpt lat="45.98932" lon="4.04696">
        <ele>290</ele>
        <time>2023-11-07T09:00:02Z</time>
      </trkpt>
      <trkpt lat="45.98933" lon="4.04706">
        <ele>288</ele>
        <time>2023-11-07T09:00:10Z</time>
      </trkpt>
      <trkpt lat="45.9898" lon="4.04716">
        <ele>282</ele>
        <time>2023-11-07T09:00:45Z</time>
      </trkpt>
      <trkpt lat="45.99019" lon="4.04731">
        <ele>278</ele>
        <time>2023-11-07T09:01:14Z</time>
      </trkpt>
      <trkpt lat="45.99046" lon="4.04743">
        <ele>278</ele>
        <time>2023-11-07T09:01:35Z</time>
      </trkpt>
      <trkpt lat="45.99071" lon="4.0475">
        <ele>278</ele>
        <time>2023-11-07T09:01:56Z</time>
      </trkpt>
      <trkpt lat="45.99113" lon="4.0475">
        <ele>278</ele>
        <time>2023-11-07T09:02:32Z</time>
      </trkpt>
      <trkpt lat="45.99183" lon="4.04739">
        <ele>278</ele>
        <time>2023-11-07T09:03:27Z</time>
      </trkpt>
      <trkpt lat="45.99224" lon="4.04731">
        <ele>279</ele>
        <time>2023-11-07T09:03:58Z</time>
      </trkpt>
      <trkpt lat="45.99297" lon="4.04698">
        <ele>279</ele>
        <time>2023-11-07T09:04:54Z</time>
      </trkpt>
      <trkpt lat="45.99365" lon="4.04672">
        <ele>280</ele>
        <time>2023-11-07T09:05:49Z</time>
      </trkpt>
      <trkpt lat="45.99469" lon="4.04632">
        <ele>278</ele>
        <time>2023-11-07T09:07:11Z</time>
      </trkpt>
      <trkpt lat="45.99519" lon="4.04592">
        <ele>276</ele>
        <time>2023-11-07T09:07:53Z</time>
      </trkpt>
      <trkpt lat="45.99534" lon="4.04584">
        <ele>277</ele>
        <time>2023-11-07T09:08:04Z</time>
      </trkpt>
      <trkpt lat="45.9954" lon="4.04578">
        <ele>277</ele>
        <time>2023-11-07T09:08:10Z</time>
      </trkpt>
      <trkpt lat="45.99563" lon="4.04554">
        <ele>274</ele>
        <time>2023-11-07T09:08:33Z</time>
      </trkpt>
      <trkpt lat="45.99591" lon="4.0453">
        <ele>275</ele>
        <time>2023-11-07T09:09:01Z</time>
      </trkpt>
      <trkpt lat="45.99593" lon="4.04514">
        <ele>279</ele>
        <time>2023-11-07T09:10:07Z</time>
      </trkpt>
      <trkpt lat="45.99582" lon="4.04493">
        <ele>278.5</ele>
        <time>2023-11-07T09:10:25Z</time>
      </trkpt>
      <trkpt lat="45.99578" lon="4.04484">
        <ele>279</ele>
        <time>2023-11-07T09:10:34Z</time>
      </trkpt>
      <trkpt lat="45.99569" lon="4.04481">
        <ele>278</ele>
        <time>2023-11-07T09:10:42Z</time>
      </trkpt>
      <trkpt lat="45.9956" lon="4.0447">
        <ele>280</ele>
        <time>2023-11-07T09:11:03Z</time>
      </trkpt>
      <trkpt lat="45.9955" lon="4.0445">
        <ele>282</ele>
        <time>2023-11-07T09:11:47Z</time>
      </trkpt>
      <trkpt lat="45.99544" lon="4.0445">
        <ele>281</ele>
        <time>2023-11-07T09:11:55Z</time>
      </trkpt>
      <trkpt lat="45.99537" lon="4.04445">
        <ele>283</ele>
        <time>2023-11-07T09:12:47Z</time>
      </trkpt>
      <trkpt lat="45.9949" lon="4.04399">
        <ele>292</ele>
        <time>2023-11-07T09:13:42Z</time>
      </trkpt>
      <trkpt lat="45.99485" lon="4.04389">
        <ele>291</ele>
        <time>2023-11-07T09:13:50Z</time>
      </trkpt>
      <trkpt lat="45.99474" lon="4.04379">
        <ele>292</ele>
        <time>2023-11-07T09:14:01Z</time>
      </trkpt>
      <trkpt lat="45.99466" lon="4.04376">
        <ele>291</ele>
        <time>2023-11-07T09:14:12Z</time>
      </trkpt>
      <trkpt lat="45.99437" lon="4.04328">
        <ele>297</ele>
        <time>2023-11-07T09:14:57Z</time>
      </trkpt>
      <trkpt lat="45.99427" lon="4.04317">
        <ele>299</ele>
        <time>2023-11-07T09:15:09Z</time>
      </trkpt>
      <trkpt lat="45.99383" lon="4.04282">
        <ele>305</ele>
        <time>2023-11-07T09:15:54Z</time>
      </trkpt>
      <trkpt lat="45.99359" lon="4.04264">
        <ele>308.6</ele>
        <time>2023-11-07T09:16:15Z</time>
      </trkpt>
      <trkpt lat="45.99344" lon="4.04254">
        <ele>310</ele>
      </trkpt>
      <trkpt lat="45.99343" lon="4.04244">
        <ele>314</ele>
        <time>2023-11-07T09:18:14Z</time>
      </trkpt>
      <trkpt lat="45.99318" lon="4.04167">
        <ele>317.1</ele>
        <time>2023-11-07T09:19:06Z</time>
      </trkpt>
      <trkpt lat="45.99315" lon="4.04121">
        <ele>316</ele>
        <time>2023-11-07T09:19:44Z</time>
      </trkpt>
      <trkpt lat="45.99311" lon="4.04109">
        <ele>319</ele>
        <time>2023-11-07T09:19:54Z</time>
      </trkpt>
      <trkpt lat="45.99307" lon="4.04023">
        <ele>337</ele>
        <time>2023-11-07T09:21:46Z</time>
      </trkpt>
      <trkpt lat="45.99301" lon="4.04004">
        <ele>342</ele>
        <time>2023-11-07T09:25:51Z</time>
      </trkpt>
      <trkpt lat="45.9931" lon="4.03929">
        <ele>354</ele>
        <time>2023-11-07T09:26:58Z</time>
      </trkpt>
      <trkpt lat="45.9931" lon="4.03908">
        <ele>358.9</ele>
        <time>2023-11-07T09:27:11Z</time>
      </trkpt>
      <trkpt lat="45.99313" lon="4.03898">
        <ele>353</ele>
        <time>2023-11-07T09:27:18Z</time>
      </trkpt>
      <trkpt lat="45.99311" lon="4.03876">
        <ele>356</ele>
        <time>2023-11-07T09:27:31Z</time>
      </trkpt>
      <trkpt lat="45.9931" lon="4.03863">
        <ele>357</ele>
        <time>2023-11-07T09:27:39Z</time>
      </trkpt>
      <trkpt lat="45.99318" lon="4.03856">
        <ele>358</ele>
        <time>2023-11-07T09:27:51Z</time>
      </trkpt>
      <trkpt lat="45.9933" lon="4.03853">
        <ele>355</ele>
        <time>2023-11-07T09:28:01Z</time>
      </trkpt>
      <trkpt lat="45.99354" lon="4.03837">
        <ele>357</ele>
        <time>2023-11-07T09:28:21Z</time>
      </trkpt>
      <trkpt lat="45.99368" lon="4.03832">
        <ele>363</ele>
        <time>2023-11-07T09:28:33Z</time>
      </trkpt>
      <trkpt lat="45.99378" lon="4.03833">
        <ele>365</ele>
        <time>2023-11-07T09:28:43Z</time>
      </trkpt>
      <trkpt lat="45.99382" lon="4.03827">
        <ele>366</ele>
        <time>2023-11-07T09:28:50Z</time>
      </trkpt>
      <trkpt lat="45.99395" lon="4.03822">
        <ele>370</ele>
        <time>2023-11-07T09:29:04Z</time>
      </trkpt>
      <trkpt lat="45.99403" lon="4.03831">
        <ele>368</ele>
        <time>2023-11-07T09:29:11Z</time>
      </trkpt>
      <trkpt lat="45.99399" lon="4.03846">
        <ele>370</ele>
        <time>2023-11-07T09:30:57Z</time>
      </trkpt>
      <trkpt lat="45.99422" lon="4.03864">
        <ele>369</ele>
        <time>2023-11-07T09:31:29Z</time>
      </trkpt>
      <trkpt lat="45.99434" lon="4.03862">
        <ele>373</ele>
        <time>2023-11-07T09:31:50Z</time>
      </trkpt>
      <trkpt lat="45.99432" lon="4.03839">
        <ele>374</ele>
        <time>2023-11-07T09:32:07Z</time>
      </trkpt>
      <trkpt lat="45.99422" lon="4.03825">
        <ele>374</ele>
        <time>2023-11-07T09:32:25Z</time>
      </trkpt>
      <trkpt lat="45.99417" lon="4.03822">
        <ele>365</ele>
        <time>2023-11-07T09:33:03Z</time>
      </trkpt>
      <trkpt lat="45.99414" lon="4.03815">
        <ele>362</ele>
        <time>2023-11-07T09:33:10Z</time>
      </trkpt>
      <trkpt lat="45.99409" lon="4.03815">
        <ele>361</ele>
        <time>2023-11-07T09:33:19Z</time>
      </trkpt>
      <trkpt lat="45.99403" lon="4.03801">
        <ele>364</ele>
        <time>2023-11-07T09:33:33Z</time>
      </trkpt>
      <trkpt lat="45.99393" lon="4.03799">
        <ele>366</ele>
        <time>2023-11-07T09:33:42Z</time>
      </trkpt>
      <trkpt lat="45.99388" lon="4.03802">
        <ele>366</ele>
        <time>2023-11-07T09:33:50Z</time>
      </trkpt>
      <trkpt lat="45.99378" lon="4.03797">
        <ele>364</ele>
        <time>2023-11-07T09:33:59Z</time>
      </trkpt>
      <trkpt lat="45.99369" lon="4.03798">
        <ele>367.8</ele>
        <time>2023-11-07T09:34:06Z</time>
      </trkpt>
      <trkpt lat="45.99365" lon="4.03791">
        <ele>362</ele>
        <time>2023-11-07T09:34:14Z</time>
      </trkpt>
      <trkpt lat="45.99365" lon="4.03772">
        <ele>362</ele>
        <time>2023-11-07T09:34:31Z</time>
      </trkpt>
      <trkpt lat="45.9936" lon="4.03765">
        <ele>371</ele>
        <time>2023-11-07T09:35:05Z</time>
      </trkpt>
      <trkpt lat="45.9935" lon="4.0377">
        <ele>373</ele>
        <time>2023-11-07T09:35:13Z</time>
      </trkpt>
      <trkpt lat="45.99326" lon="4.03763">
        <ele>372</ele>
        <time>2023-11-07T09:35:50Z</time>
      </trkpt>
      <trkpt lat="45.99306" lon="4.03764">
        <ele>372</ele>
        <time>2023-11-07T09:36:07Z</time>
      </trkpt>
      <trkpt lat="45.99295" lon="4.0377">
        <ele>369</ele>
        <time>2023-11-07T09:36:18Z</time>
      </trkpt>
      <trkpt lat="45.99291" lon="4.03804">
        <ele>368</ele>
        <time>2023-11-07T09:36:40Z</time>
      </trkpt>
      <trkpt lat="45.99282" lon="4.03848">
        <ele>365</ele>
        <time>2023-11-07T09:37:03Z</time>
      </trkpt>
      <trkpt lat="45.99281" lon="4.03869">
        <ele>366</ele>
        <time>2023-11-07T09:37:23Z</time>
      </trkpt>
      <trkpt lat="45.99266" lon="4.03875">
        <ele>367</ele>
        <time>2023-11-07T09:37:34Z</time>
      </trkpt>
      <trkpt lat="45.99254" lon="4.03879">
        <ele>368</ele>
        <time>2023-11-07T09:37:52Z</time>
      </trkpt>
      <trkpt lat="45.9924" lon="4.03885">
        <ele>368</ele>
        <time>2023-11-07T09:38:04Z</time>
      </trkpt>
      <trkpt lat="45.99217" lon="4.03895">
        <ele>364</ele>
        <time>2023-11-07T09:38:22Z</time>
      </trkpt>
      <trkpt lat="45.99185" lon="4.03916">
        <ele>363</ele>
        <time>2023-11-07T09:39:00Z</time>
      </trkpt>
      <trkpt lat="45.99171" lon="4.0392">
        <ele>364</ele>
        <time>2023-11-07T09:39:13Z</time>
      </trkpt>
      <trkpt lat="45.9916" lon="4.03932">
        <ele>364</ele>
        <time>2023-11-07T09:39:23Z</time>
      </trkpt>
      <trkpt lat="45.99156" lon="4.03943">
        <ele>363</ele>
        <time>2023-11-07T09:39:30Z</time>
      </trkpt>
      <trkpt lat="45.99146" lon="4.03942">
        <ele>360</ele>
        <time>2023-11-07T09:39:47Z</time>
      </trkpt>
      <trkpt lat="45.99136" lon="4.03934">
        <ele>361</ele>
        <time>2023-11-07T09:39:57Z</time>
      </trkpt>
      <trkpt lat="45.99078" lon="4.03924">
        <ele>362</ele>
        <time>2023-11-07T09:40:44Z</time>
      </trkpt>
      <trkpt lat="45.99065" lon="4.03923">
        <ele>367</ele>
        <time>2023-11-07T09:40:57Z</time>
      </trkpt>
      <trkpt lat="45.98989" lon="4.03958">
        <ele>364</ele>
        <time>2023-11-07T09:42:09Z</time>
      </trkpt>
      <trkpt lat="45.98974" lon="4.03973">
        <ele>365</ele>
        <time>2023-11-07T09:42:24Z</time>
      </trkpt>
      <trkpt lat="45.9896" lon="4.0398">
        <ele>365</ele>
        <time>2023-11-07T09:42:34Z</time>
      </trkpt>
      <trkpt lat="45.9895" lon="4.0399">
        <ele>365</ele>
        <time>2023-11-07T09:42:43Z</time>
      </trkpt>
      <trkpt lat="45.98936" lon="4.03983">
        <ele>364</ele>
        <time>2023-11-07T09:42:53Z</time>
      </trkpt>
      <trkpt lat="45.98923" lon="4.03972">
        <ele>360</ele>
        <time>2023-11-07T09:43:08Z</time>
      </trkpt>
      <trkpt lat="45.9892" lon="4.03974">
        <ele>359</ele>
        <time>2023-11-07T09:43:11Z</time>
      </trkpt>
      <trkpt lat="45.98917" lon="4.03998">
        <ele>358</ele>
        <time>2023-11-07T09:43:24Z</time>
      </trkpt>
      <trkpt lat="45.98827" lon="4.04049">
        <ele>353</ele>
        <time>2023-11-07T09:44:36Z</time>
      </trkpt>
      <trkpt lat="45.98823" lon="4.04078">
        <ele>350</ele>
        <time>2023-11-07T09:44:52Z</time>
      </trkpt>
      <trkpt lat="45.98814" lon="4.04096">
        <ele>348</ele>
        <time>2023-11-07T09:45:04Z</time>
      </trkpt>
      <trkpt lat="45.98789" lon="4.04103">
        <ele>347</ele>
        <time>2023-11-07T09:45:26Z</time>
      </trkpt>
      <trkpt lat="45.98765" lon="4.04098">
        <ele>342</ele>
        <time>2023-11-07T09:45:44Z</time>
      </trkpt>
      <trkpt lat="45.98755" lon="4.04092">
        <ele>340</ele>
        <time>2023-11-07T09:45:50Z</time>
      </trkpt>
      <trkpt lat="45.98655" lon="4.04071">
        <ele>325</ele>
        <time>2023-11-07T09:47:07Z</time>
      </trkpt>
      <trkpt lat="45.98636" lon="4.04084">
        <ele>325</ele>
        <time>2023-11-07T09:47:25Z</time>
      </trkpt>
      <trkpt lat="45.9863" lon="4.04082">
        <ele>324</ele>
        <time>2023-11-07T09:47:29Z</time>
      </trkpt>
      <trkpt lat="45.98621" lon="4.04068">
        <ele>323</ele>
        <time>2023-11-07T09:47:38Z</time>
      </trkpt>
      <trkpt lat="45.986" lon="4.04053">
        <ele>320</ele>
        <time>2023-11-07T09:47:56Z</time>
      </trkpt>
      <trkpt lat="45.98596" lon="4.04028">
        <ele>317</ele>
        <time>2023-11-07T09:48:10Z</time>
      </trkpt>
      <trkpt lat="45.98586" lon="4.04">
        <ele>317</ele>
        <time>2023-11-07T09:48:25Z</time>
      </trkpt>
      <trkpt lat="45.98587" lon="4.03987">
        <ele>316</ele>
        <time>2023-11-07T09:48:31Z</time>
      </trkpt>
      <trkpt lat="45.98574" lon="4.03949">
        <ele>313</ele>
        <time>2023-11-07T09:48:53Z</time>
      </trkpt>
      <trkpt lat="45.98561" lon="4.03917">
        <ele>312</ele>
        <time>2023-11-07T09:49:13Z</time>
      </trkpt>
      <trkpt lat="45.98554" lon="4.03912">
        <ele>311</ele>
        <time>2023-11-07T09:49:20Z</time>
      </trkpt>
      <trkpt lat="45.98554" lon="4.03856">
        <ele>313</ele>
        <time>2023-11-07T09:49:54Z</time>
      </trkpt>
      <trkpt lat="45.98559" lon="4.03845">
        <ele>313</ele>
        <time>2023-11-07T09:50:00Z</time>
      </trkpt>
      <trkpt lat="45.9856" lon="4.03829">
        <ele>312</ele>
        <time>2023-11-07T09:50:09Z</time>
      </trkpt>
      <trkpt lat="45.98568" lon="4.03807">
        <ele>311</ele>
        <time>2023-11-07T09:50:20Z</time>
      </trkpt>
      <trkpt lat="45.98564" lon="4.03799">
        <ele>310</ele>
        <time>2023-11-07T09:50:25Z</time>
      </trkpt>
      <trkpt lat="45.98554" lon="4.03795">
        <ele>309</ele>
        <time>2023-11-07T09:50:33Z</time>
      </trkpt>
      <trkpt lat="45.98539" lon="4.03797">
        <ele>310</ele>
        <time>2023-11-07T09:50:44Z</time>
      </trkpt>
      <trkpt lat="45.98532" lon="4.03801">
        <ele>310</ele>
        <time>2023-11-07T09:50:50Z</time>
      </trkpt>
      <trkpt lat="45.98527" lon="4.03801">
        <ele>312</ele>
        <time>2023-11-07T09:50:53Z</time>
      </trkpt>
      <trkpt lat="45.98515" lon="4.03808">
        <ele>312</ele>
        <time>2023-11-07T09:51:04Z</time>
      </trkpt>
      <trkpt lat="45.98494" lon="4.03798">
        <ele>315</ele>
        <time>2023-11-07T09:51:20Z</time>
      </trkpt>
      <trkpt lat="45.98474" lon="4.03747">
        <ele>314</ele>
        <time>2023-11-07T09:51:53Z</time>
      </trkpt>
      <trkpt lat="45.98469" lon="4.03725">
        <ele>312</ele>
        <time>2023-11-07T09:52:04Z</time>
      </trkpt>
      <trkpt lat="45.98452" lon="4.03678">
        <ele>310</ele>
        <time>2023-11-07T09:52:35Z</time>
      </trkpt>
      <trkpt lat="45.98405" lon="4.03609">
        <ele>309</ele>
        <time>2023-11-07T09:53:22Z</time>
      </trkpt>
      <trkpt lat="45.98403" lon="4.03598">
        <ele>311</ele>
        <time>2023-11-07T09:53:32Z</time>
      </trkpt>
      <trkpt lat="45.98428" lon="4.03582">
        <ele>311</ele>
        <time>2023-11-07T09:53:54Z</time>
      </trkpt>
      <trkpt lat="45.98421" lon="4.03567">
        <ele>312</ele>
        <time>2023-11-07T09:54:58Z</time>
      </trkpt>
      <trkpt lat="45.98401" lon="4.03505">
        <ele>312</ele>
        <time>2023-11-07T09:55:34Z</time>
      </trkpt>
      <trkpt lat="45.984" lon="4.03487">
        <ele>312</ele>
        <time>2023-11-07T09:55:43Z</time>
      </trkpt>
      <trkpt lat="45.98407" lon="4.03466">
        <ele>311</ele>
        <time>2023-11-07T09:55:57Z</time>
      </trkpt>
      <trkpt lat="45.98414" lon="4.03461">
        <ele>310</ele>
        <time>2023-11-07T09:56:02Z</time>
      </trkpt>
      <trkpt lat="45.98417" lon="4.03453">
        <ele>310</ele>
        <time>2023-11-07T09:56:08Z</time>
      </trkpt>
      <trkpt lat="45.98405" lon="4.0342">
        <ele>309</ele>
        <time>2023-11-07T09:56:27Z</time>
      </trkpt>
      <trkpt lat="45.984" lon="4.03412">
        <ele>310</ele>
        <time>2023-11-07T09:56:33Z</time>
      </trkpt>
      <trkpt lat="45.98398" lon="4.03401">
        <ele>310</ele>
        <time>2023-11-07T09:56:41Z</time>
      </trkpt>
      <trkpt lat="45.98379" lon="4.03383">
        <ele>309</ele>
        <time>2023-11-07T09:57:02Z</time>
      </trkpt>
      <trkpt lat="45.98382" lon="4.03346">
        <ele>310</ele>
        <time>2023-11-07T09:58:14Z</time>
      </trkpt>
      <trkpt lat="45.98418" lon="4.03274">
        <ele>310</ele>
        <time>2023-11-07T09:59:00Z</time>
      </trkpt>
      <trkpt lat="45.9843" lon="4.03255">
        <ele>309</ele>
        <time>2023-11-07T09:59:13Z</time>
      </trkpt>
      <trkpt lat="45.98435" lon="4.03242">
        <ele>309</ele>
        <time>2023-11-07T10:00:38Z</time>
      </trkpt>
      <trkpt lat="45.98425" lon="4.03228">
        <ele>309</ele>
        <time>2023-11-07T10:00:48Z</time>
      </trkpt>
      <trkpt lat="45.98412" lon="4.03231">
        <ele>310</ele>
        <time>2023-11-07T10:00:57Z</time>
      </trkpt>
      <trkpt lat="45.98348" lon="4.03281">
        <ele>317</ele>
        <time>2023-11-07T10:01:57Z</time>
      </trkpt>
      <trkpt lat="45.9834" lon="4.0328">
        <ele>316</ele>
        <time>2023-11-07T10:02:03Z</time>
      </trkpt>
      <trkpt lat="45.98314" lon="4.03262">
        <ele>313</ele>
        <time>2023-11-07T10:02:26Z</time>
      </trkpt>
      <trkpt lat="45.98304" lon="4.03229">
        <ele>312</ele>
        <time>2023-11-07T10:02:45Z</time>
      </trkpt>
      <trkpt lat="45.98298" lon="4.03223">
        <ele>313</ele>
        <time>2023-11-07T10:02:51Z</time>
      </trkpt>
      <trkpt lat="45.98258" lon="4.03214">
        <ele>313</ele>
        <time>2023-11-07T10:03:19Z</time>
      </trkpt>
      <trkpt lat="45.98197" lon="4.03207">
        <ele>313</ele>
        <time>2023-11-07T10:04:05Z</time>
      </trkpt>
      <trkpt lat="45.98178" lon="4.03196">
        <ele>307</ele>
        <time>2023-11-07T10:04:20Z</time>
      </trkpt>
      <trkpt lat="45.98149" lon="4.03183">
        <ele>308</ele>
        <time>2023-11-07T10:04:44Z</time>
      </trkpt>
      <trkpt lat="45.98066" lon="4.03124">
        <ele>304</ele>
        <time>2023-11-07T10:05:53Z</time>
      </trkpt>
      <trkpt lat="45.98051" lon="4.03108">
        <ele>305</ele>
        <time>2023-11-07T10:06:04Z</time>
      </trkpt>
      <trkpt lat="45.98032" lon="4.03077">
        <ele>308</ele>
        <time>2023-11-07T10:06:28Z</time>
      </trkpt>
      <trkpt lat="45.98015" lon="4.03061">
        <ele>312</ele>
        <time>2023-11-07T10:06:42Z</time>
      </trkpt>
      <trkpt lat="45.98009" lon="4.03058">
        <ele>312</ele>
        <time>2023-11-07T10:06:47Z</time>
      </trkpt>
      <trkpt lat="45.97996" lon="4.03046">
        <ele>312</ele>
        <time>2023-11-07T10:06:59Z</time>
      </trkpt>
      <trkpt lat="45.97961" lon="4.03025">
        <ele>312</ele>
        <time>2023-11-07T10:07:29Z</time>
      </trkpt>
      <trkpt lat="45.97923" lon="4.02996">
        <ele>313</ele>
        <time>2023-11-07T10:08:02Z</time>
      </trkpt>
      <trkpt lat="45.97898" lon="4.02966">
        <ele>313</ele>
        <time>2023-11-07T10:08:26Z</time>
      </trkpt>
      <trkpt lat="45.97875" lon="4.02959">
        <ele>312</ele>
        <time>2023-11-07T10:08:45Z</time>
      </trkpt>
      <trkpt lat="45.9785" lon="4.02941">
        <ele>311</ele>
        <time>2023-11-07T10:09:05Z</time>
      </trkpt>
      <trkpt lat="45.97843" lon="4.02938">
        <ele>311</ele>
        <time>2023-11-07T10:09:10Z</time>
      </trkpt>
      <trkpt lat="45.97831" lon="4.02927">
        <ele>310</ele>
        <time>2023-11-07T10:09:21Z</time>
      </trkpt>
      <trkpt lat="45.97774" lon="4.02906">
        <ele>310</ele>
        <time>2023-11-07T10:10:04Z</time>
      </trkpt>
      <trkpt lat="45.9772" lon="4.02877">
        <ele>313</ele>
        <time>2023-11-07T10:10:47Z</time>
      </trkpt>
      <trkpt lat="45.97704" lon="4.02865">
        <ele>313</ele>
        <time>2023-11-07T10:11:00Z</time>
      </trkpt>
      <trkpt lat="45.97683" lon="4.02839">
        <ele>313</ele>
        <time>2023-11-07T10:11:20Z</time>
      </trkpt>
      <trkpt lat="45.97676" lon="4.02836">
        <ele>313</ele>
        <time>2023-11-07T10:11:25Z</time>
      </trkpt>
      <trkpt lat="45.97667" lon="4.02841">
        <ele>313</ele>
        <time>2023-11-07T10:11:32Z</time>
      </trkpt>
      <trkpt lat="45.97648" lon="4.02858">
        <ele>314</ele>
        <time>2023-11-07T10:11:47Z</time>
      </trkpt>
      <trkpt lat="45.97624" lon="4.02861">
        <ele>318</ele>
        <time>2023-11-07T10:12:06Z</time>
      </trkpt>
      <trkpt lat="45.97582" lon="4.02827">
        <ele>317</ele>
        <time>2023-11-07T10:12:43Z</time>
      </trkpt>
      <trkpt lat="45.97554" lon="4.02789">
        <ele>316</ele>
        <time>2023-11-07T10:13:11Z</time>
      </trkpt>
      <trkpt lat="45.97533" lon="4.02777">
        <ele>315</ele>
        <time>2023-11-07T10:13:28Z</time>
      </trkpt>
      <trkpt lat="45.97513" lon="4.02746">
        <ele>315</ele>
        <time>2023-11-07T10:13:47Z</time>
      </trkpt>
      <trkpt lat="45.97498" lon="4.02699">
        <ele>308</ele>
        <time>2023-11-07T10:14:14Z</time>
      </trkpt>
      <trkpt lat="45.97477" lon="4.02669">
        <ele>311</ele>
        <time>2023-11-07T10:14:36Z</time>
      </trkpt>
      <trkpt lat="45.97465" lon="4.02626">
        <ele>313</ele>
        <time>2023-11-07T10:15:01Z</time>
      </trkpt>
      <trkpt lat="45.97467" lon="4.02589">
        <ele>313</ele>
        <time>2023-11-07T10:15:21Z</time>
      </trkpt>
      <trkpt lat="45.9746" lon="4.02541">
        <ele>314</ele>
        <time>2023-11-07T10:15:45Z</time>
      </trkpt>
      <trkpt lat="45.97456" lon="4.02516">
        <ele>315</ele>
        <time>2023-11-07T10:15:59Z</time>
      </trkpt>
      <trkpt lat="45.97466" lon="4.02468">
        <ele>313</ele>
        <time>2023-11-07T10:16:24Z</time>
      </trkpt>
      <trkpt lat="45.97478" lon="4.02441">
        <ele>311</ele>
        <time>2023-11-07T10:16:42Z</time>
      </trkpt>
      <trkpt lat="45.97487" lon="4.0244">
        <ele>309</ele>
        <time>2023-11-07T10:16:47Z</time>
      </trkpt>
      <trkpt lat="45.97522" lon="4.02386">
        <ele>307</ele>
        <time>2023-11-07T10:17:27Z</time>
      </trkpt>
      <trkpt lat="45.97535" lon="4.02382">
        <ele>307</ele>
        <time>2023-11-07T10:17:37Z</time>
      </trkpt>
      <trkpt lat="45.97545" lon="4.02376">
        <ele>308</ele>
        <time>2023-11-07T10:17:45Z</time>
      </trkpt>
      <trkpt lat="45.97555" lon="4.02348">
        <ele>310</ele>
        <time>2023-11-07T10:18:00Z</time>
      </trkpt>
      <trkpt lat="45.97553" lon="4.02343">
        <ele>310</ele>
        <time>2023-11-07T10:18:04Z</time>
      </trkpt>
      <trkpt lat="45.97565" lon="4.02322">
        <ele>310</ele>
        <time>2023-11-07T10:18:18Z</time>
      </trkpt>
      <trkpt lat="45.97581" lon="4.0231">
        <ele>310</ele>
        <time>2023-11-07T10:18:30Z</time>
      </trkpt>
      <trkpt lat="45.97608" lon="4.02312">
        <ele>311</ele>
        <time>2023-11-07T10:20:41Z</time>
      </trkpt>
      <trkpt lat="45.9761" lon="4.02318">
        <ele>311</ele>
        <time>2023-11-07T10:22:15Z</time>
      </trkpt>
      <trkpt lat="45.97613" lon="4.02335">
        <ele>312</ele>
        <time>2023-11-07T10:22:27Z</time>
      </trkpt>
      <trkpt lat="45.97635" lon="4.0236">
        <ele>315</ele>
        <time>2023-11-07T10:22:53Z</time>
      </trkpt>
      <trkpt lat="45.97642" lon="4.02377">
        <ele>316</ele>
        <time>2023-11-07T10:23:08Z</time>
      </trkpt>
      <trkpt lat="45.97657" lon="4.02471">
        <ele>325</ele>
        <time>2023-11-07T10:24:15Z</time>
      </trkpt>
      <trkpt lat="45.97659" lon="4.02511">
        <ele>329</ele>
        <time>2023-11-07T10:24:40Z</time>
      </trkpt>
      <trkpt lat="45.97663" lon="4.02546">
        <ele>331</ele>
        <time>2023-11-07T10:25:04Z</time>
      </trkpt>
      <trkpt lat="45.97684" lon="4.02586">
        <ele>336</ele>
        <time>2023-11-07T10:25:35Z</time>
      </trkpt>
      <trkpt lat="45.97694" lon="4.02622">
        <ele>340</ele>
        <time>2023-11-07T10:26:00Z</time>
      </trkpt>
      <trkpt lat="45.97705" lon="4.02641">
        <ele>342</ele>
        <time>2023-11-07T10:26:13Z</time>
      </trkpt>
      <trkpt lat="45.97721" lon="4.02652">
        <ele>341</ele>
        <time>2023-11-07T10:26:28Z</time>
      </trkpt>
      <trkpt lat="45.97737" lon="4.02659">
        <ele>342</ele>
        <time>2023-11-07T10:26:45Z</time>
      </trkpt>
      <trkpt lat="45.97787" lon="4.02641">
        <ele>347</ele>
        <time>2023-11-07T10:27:28Z</time>
      </trkpt>
      <trkpt lat="45.97824" lon="4.02647">
        <ele>351</ele>
        <time>2023-11-07T10:28:00Z</time>
      </trkpt>
      <trkpt lat="45.97832" lon="4.02645">
        <ele>350</ele>
        <time>2023-11-07T10:28:08Z</time>
      </trkpt>
      <trkpt lat="45.97849" lon="4.02649">
        <ele>351</ele>
        <time>2023-11-07T10:28:22Z</time>
      </trkpt>
      <trkpt lat="45.97907" lon="4.02621">
        <ele>350</ele>
        <time>2023-11-07T10:29:10Z</time>
      </trkpt>
      <trkpt lat="45.97914" lon="4.02622">
        <ele>350</ele>
        <time>2023-11-07T10:29:15Z</time>
      </trkpt>
      <trkpt lat="45.97923" lon="4.02616">
        <ele>350</ele>
        <time>2023-11-07T10:29:22Z</time>
      </trkpt>
      <trkpt lat="45.97951" lon="4.02617">
        <ele>361</ele>
        <time>2023-11-07T10:29:45Z</time>
      </trkpt>
      <trkpt lat="45.97954" lon="4.02621">
        <ele>362</ele>
        <time>2023-11-07T10:30:37Z</time>
      </trkpt>
      <trkpt lat="45.97995" lon="4.02639">
        <ele>359</ele>
        <time>2023-11-07T10:31:10Z</time>
      </trkpt>
      <trkpt lat="45.98007" lon="4.02643">
        <ele>357</ele>
        <time>2023-11-07T10:31:19Z</time>
      </trkpt>
      <trkpt lat="45.98031" lon="4.02662">
        <ele>357</ele>
        <time>2023-11-07T10:31:39Z</time>
      </trkpt>
      <trkpt lat="45.98066" lon="4.02682">
        <ele>355</ele>
        <time>2023-11-07T10:32:05Z</time>
      </trkpt>
      <trkpt lat="45.98081" lon="4.02695">
        <ele>353</ele>
        <time>2023-11-07T10:32:18Z</time>
      </trkpt>
      <trkpt lat="45.98113" lon="4.02709">
        <ele>351</ele>
        <time>2023-11-07T10:32:43Z</time>
      </trkpt>
      <trkpt lat="45.9814" lon="4.02735">
        <ele>353</ele>
        <time>2023-11-07T10:33:08Z</time>
      </trkpt>
      <trkpt lat="45.98142" lon="4.02742">
        <ele>353</ele>
        <time>2023-11-07T10:33:27Z</time>
      </trkpt>
      <trkpt lat="45.98137" lon="4.02763">
        <ele>353</ele>
        <time>2023-11-07T10:33:37Z</time>
      </trkpt>
      <trkpt lat="45.98127" lon="4.02785">
        <ele>352</ele>
        <time>2023-11-07T10:33:49Z</time>
      </trkpt>
      <trkpt lat="45.98119" lon="4.02833">
        <ele>347</ele>
        <time>2023-11-07T10:34:21Z</time>
      </trkpt>
      <trkpt lat="45.98115" lon="4.02849">
        <ele>348</ele>
        <time>2023-11-07T10:34:29Z</time>
      </trkpt>
      <trkpt lat="45.98109" lon="4.02894">
        <ele>346</ele>
        <time>2023-11-07T10:34:50Z</time>
      </trkpt>
      <trkpt lat="45.98113" lon="4.02904">
        <ele>344</ele>
        <time>2023-11-07T10:35:12Z</time>
      </trkpt>
      <trkpt lat="45.98119" lon="4.029">
        <ele>343</ele>
        <time>2023-11-07T10:35:24Z</time>
      </trkpt>
      <trkpt lat="45.9813" lon="4.02908">
        <ele>342</ele>
        <time>2023-11-07T10:35:37Z</time>
      </trkpt>
      <trkpt lat="45.98158" lon="4.02936">
        <ele>338</ele>
        <time>2023-11-07T10:36:16Z</time>
      </trkpt>
      <trkpt lat="45.98181" lon="4.02962">
        <ele>335</ele>
        <time>2023-11-07T10:36:41Z</time>
      </trkpt>
      <trkpt lat="45.98211" lon="4.02983">
        <ele>334</ele>
        <time>2023-11-07T10:37:09Z</time>
      </trkpt>
      <trkpt lat="45.98262" lon="4.03027">
        <ele>331</ele>
        <time>2023-11-07T10:37:57Z</time>
      </trkpt>
      <trkpt lat="45.98312" lon="4.03069">
        <ele>330</ele>
        <time>2023-11-07T10:38:43Z</time>
      </trkpt>
      <trkpt lat="45.98318" lon="4.03077">
        <ele>330</ele>
        <time>2023-11-07T10:38:48Z</time>
      </trkpt>
      <trkpt lat="45.98353" lon="4.03091">
        <ele>328</ele>
        <time>2023-11-07T10:39:16Z</time>
      </trkpt>
      <trkpt lat="45.98367" lon="4.03087">
        <ele>327</ele>
        <time>2023-11-07T10:39:25Z</time>
      </trkpt>
      <trkpt lat="45.98399" lon="4.03089">
        <ele>329</ele>
        <time>2023-11-07T10:39:52Z</time>
      </trkpt>
      <trkpt lat="45.98418" lon="4.03085">
        <ele>328</ele>
        <time>2023-11-07T10:40:05Z</time>
      </trkpt>
      <trkpt lat="45.98435" lon="4.0308">
        <ele>329</ele>
        <time>2023-11-07T10:40:20Z</time>
      </trkpt>
      <trkpt lat="45.98464" lon="4.03072">
        <ele>330</ele>
        <time>2023-11-07T10:40:42Z</time>
      </trkpt>
      <trkpt lat="45.98502" lon="4.03066">
        <ele>328</ele>
        <time>2023-11-07T10:41:11Z</time>
      </trkpt>
      <trkpt lat="45.98532" lon="4.03043">
        <ele>330</ele>
        <time>2023-11-07T10:41:39Z</time>
      </trkpt>
      <trkpt lat="45.98568" lon="4.03009">
        <ele>328</ele>
        <time>2023-11-07T10:42:17Z</time>
      </trkpt>
      <trkpt lat="45.98577" lon="4.03006">
        <ele>323</ele>
        <time>2023-11-07T10:42:21Z</time>
      </trkpt>
      <trkpt lat="45.98588" lon="4.0299">
        <ele>324</ele>
        <time>2023-11-07T10:42:36Z</time>
      </trkpt>
      <trkpt lat="45.98605" lon="4.02986">
        <ele>325</ele>
        <time>2023-11-07T10:42:50Z</time>
      </trkpt>
      <trkpt lat="45.98613" lon="4.02987">
        <ele>327</ele>
        <time>2023-11-07T10:42:55Z</time>
      </trkpt>
      <trkpt lat="45.98642" lon="4.03013">
        <ele>330</ele>
        <time>2023-11-07T10:43:20Z</time>
      </trkpt>
      <trkpt lat="45.98693" lon="4.03015">
        <ele>333</ele>
        <time>2023-11-07T10:44:04Z</time>
      </trkpt>
      <trkpt lat="45.98692" lon="4.0301">
        <ele>335</ele>
        <time>2023-11-07T10:44:14Z</time>
      </trkpt>
      <trkpt lat="45.98683" lon="4.03003">
        <ele>334</ele>
        <time>2023-11-07T10:44:23Z</time>
      </trkpt>
      <trkpt lat="45.98654" lon="4.02954">
        <ele>339</ele>
        <time>2023-11-07T10:45:10Z</time>
      </trkpt>
      <trkpt lat="45.98646" lon="4.02932">
        <ele>341</ele>
        <time>2023-11-07T10:45:24Z</time>
      </trkpt>
      <trkpt lat="45.98644" lon="4.02905">
        <ele>343</ele>
        <time>2023-11-07T10:45:37Z</time>
      </trkpt>
      <trkpt lat="45.98619" lon="4.02846">
        <ele>343</ele>
        <time>2023-11-07T10:46:16Z</time>
      </trkpt>
      <trkpt lat="45.98615" lon="4.02842">
        <ele>344</ele>
        <time>2023-11-07T10:46:20Z</time>
      </trkpt>
      <trkpt lat="45.98604" lon="4.02839">
        <ele>346</ele>
        <time>2023-11-07T10:46:27Z</time>
      </trkpt>
      <trkpt lat="45.9859" lon="4.02817">
        <ele>348</ele>
        <time>2023-11-07T10:46:39Z</time>
      </trkpt>
      <trkpt lat="45.98581" lon="4.02814">
        <ele>348</ele>
        <time>2023-11-07T10:46:48Z</time>
      </trkpt>
      <trkpt lat="45.98575" lon="4.02807">
        <ele>346</ele>
        <time>2023-11-07T10:47:11Z</time>
      </trkpt>
      <trkpt lat="45.98585" lon="4.02769">
        <ele>348</ele>
        <time>2023-11-07T10:47:34Z</time>
      </trkpt>
      <trkpt lat="45.98592" lon="4.02768">
        <ele>348</ele>
        <time>2023-11-07T10:47:43Z</time>
      </trkpt>
      <trkpt lat="45.98634" lon="4.02796">
        <ele>354</ele>
        <time>2023-11-07T10:48:23Z</time>
      </trkpt>
      <trkpt lat="45.98645" lon="4.02796">
        <ele>355</ele>
        <time>2023-11-07T10:48:32Z</time>
      </trkpt>
      <trkpt lat="45.98656" lon="4.028">
        <ele>358</ele>
        <time>2023-11-07T10:48:44Z</time>
      </trkpt>
      <trkpt lat="45.98701" lon="4.02798">
        <ele>365</ele>
        <time>2023-11-07T10:49:19Z</time>
      </trkpt>
      <trkpt lat="45.98753" lon="4.02786">
        <ele>366</ele>
        <time>2023-11-07T10:50:06Z</time>
      </trkpt>
      <trkpt lat="45.98757" lon="4.02782">
        <ele>367</ele>
        <time>2023-11-07T10:50:11Z</time>
      </trkpt>
      <trkpt lat="45.98776" lon="4.02745">
        <ele>380.6</ele>
        <time>2023-11-07T10:54:26Z</time>
      </trkpt>
      <trkpt lat="45.98751" lon="4.02712">
        <ele>384.1</ele>
        <time>2023-11-07T10:54:39Z</time>
      </trkpt>
      <trkpt lat="45.98752" lon="4.02648">
        <ele>390.3</ele>
        <time>2023-11-07T10:54:54Z</time>
      </trkpt>
      <trkpt lat="45.98859" lon="4.02639">
        <ele>381</ele>
        <time>2023-11-07T10:56:32Z</time>
      </trkpt>
      <trkpt lat="45.9888" lon="4.02635">
        <ele>381</ele>
        <time>2023-11-07T10:56:48Z</time>
      </trkpt>
      <trkpt lat="45.98902" lon="4.02628">
        <ele>380</ele>
        <time>2023-11-07T10:57:08Z</time>
      </trkpt>
      <trkpt lat="45.98919" lon="4.02625">
        <ele>381</ele>
        <time>2023-11-07T10:57:21Z</time>
      </trkpt>
      <trkpt lat="45.98929" lon="4.02626">
        <ele>378</ele>
        <time>2023-11-07T10:57:28Z</time>
      </trkpt>
      <trkpt lat="45.98987" lon="4.0261">
        <ele>379</ele>
        <time>2023-11-07T10:58:09Z</time>
        <extensions>
          <visugpx:TrkExtension xmlns:visugpx="https://www.visugpx.com/editgpx/">
            <visugpx:node>1</visugpx:node>
            </visugpx:TrkExtension>
        </extensions>
      </trkpt>
      <trkpt lat="45.99006" lon="4.0261">
        <ele>384.9</ele>
      </trkpt>
      <trkpt lat="45.99021" lon="4.0259">
        <ele>385.2</ele>
      </trkpt>
      <trkpt lat="45.99021" lon="4.02585">
        <ele>385.4</ele>
      </trkpt>
      <trkpt lat="45.99037" lon="4.02575">
        <ele>384.6</ele>
        <extensions>
          <visugpx:TrkExtension xmlns:visugpx="https://www.visugpx.com/editgpx/">
            <visugpx:node>2</visugpx:node>
            </visugpx:TrkExtension>
        </extensions>
      </trkpt>
      <trkpt lat="45.99039" lon="4.02572">
        <ele>372</ele>
        <time>2023-11-07T11:34:18Z</time>
        <extensions>
          <visugpx:TrkExtension xmlns:visugpx="https://www.visugpx.com/editgpx/">
            <visugpx:node>1</visugpx:node>
            </visugpx:TrkExtension>
        </extensions>
      </trkpt>
      <trkpt lat="45.99075" lon="4.02549">
        <ele>369</ele>
        <time>2023-11-07T11:34:44Z</time>
      </trkpt>
      <trkpt lat="45.99148" lon="4.02521">
        <ele>367</ele>
        <time>2023-11-07T11:35:33Z</time>
      </trkpt>
      <trkpt lat="45.99175" lon="4.02505">
        <ele>363</ele>
        <time>2023-11-07T11:35:54Z</time>
      </trkpt>
      <trkpt lat="45.99188" lon="4.02491">
        <ele>362</ele>
        <time>2023-11-07T11:36:08Z</time>
      </trkpt>
      <trkpt lat="45.99233" lon="4.02443">
        <ele>362</ele>
        <time>2023-11-07T11:36:49Z</time>
      </trkpt>
      <trkpt lat="45.99255" lon="4.02417">
        <ele>365</ele>
        <time>2023-11-07T11:37:11Z</time>
      </trkpt>
      <trkpt lat="45.99268" lon="4.02407">
        <ele>366</ele>
        <time>2023-11-07T11:37:21Z</time>
      </trkpt>
      <trkpt lat="45.99287" lon="4.02374">
        <ele>366</ele>
        <time>2023-11-07T11:37:45Z</time>
      </trkpt>
      <trkpt lat="45.99342" lon="4.02311">
        <ele>365</ele>
        <time>2023-11-07T11:38:34Z</time>
      </trkpt>
      <trkpt lat="45.99366" lon="4.02297">
        <ele>363</ele>
        <time>2023-11-07T11:38:50Z</time>
      </trkpt>
      <trkpt lat="45.99409" lon="4.02253">
        <ele>358</ele>
        <time>2023-11-07T11:39:31Z</time>
      </trkpt>
      <trkpt lat="45.99419" lon="4.02239">
        <ele>359</ele>
        <time>2023-11-07T11:39:43Z</time>
      </trkpt>
      <trkpt lat="45.99432" lon="4.02238">
        <ele>359</ele>
        <time>2023-11-07T11:40:04Z</time>
      </trkpt>
      <trkpt lat="45.99444" lon="4.02243">
        <ele>359</ele>
        <time>2023-11-07T11:40:08Z</time>
      </trkpt>
      <trkpt lat="45.99448" lon="4.02252">
        <ele>358</ele>
        <time>2023-11-07T11:40:12Z</time>
      </trkpt>
      <trkpt lat="45.99509" lon="4.02339">
        <ele>353</ele>
        <time>2023-11-07T11:41:13Z</time>
      </trkpt>
      <trkpt lat="45.9956" lon="4.02423">
        <ele>346</ele>
        <time>2023-11-07T11:42:09Z</time>
      </trkpt>
      <trkpt lat="45.99567" lon="4.02435">
        <ele>345</ele>
        <time>2023-11-07T11:42:17Z</time>
      </trkpt>
      <trkpt lat="45.99586" lon="4.02468">
        <ele>345</ele>
        <time>2023-11-07T11:42:38Z</time>
      </trkpt>
      <trkpt lat="45.99623" lon="4.02523">
        <ele>346</ele>
        <time>2023-11-07T11:43:17Z</time>
      </trkpt>
      <trkpt lat="45.99654" lon="4.02558">
        <ele>341</ele>
        <time>2023-11-07T11:43:46Z</time>
      </trkpt>
      <trkpt lat="45.99666" lon="4.02576">
        <ele>340</ele>
        <time>2023-11-07T11:43:58Z</time>
      </trkpt>
      <trkpt lat="45.99696" lon="4.0255">
        <ele>336</ele>
        <time>2023-11-07T11:44:22Z</time>
      </trkpt>
      <trkpt lat="45.99702" lon="4.02548">
        <ele>336</ele>
        <time>2023-11-07T11:44:27Z</time>
      </trkpt>
      <trkpt lat="45.99742" lon="4.02509">
        <ele>336</ele>
        <time>2023-11-07T11:45:03Z</time>
      </trkpt>
      <trkpt lat="45.99773" lon="4.0247">
        <ele>342</ele>
        <time>2023-11-07T11:45:35Z</time>
      </trkpt>
      <trkpt lat="45.99812" lon="4.02434">
        <ele>339</ele>
        <time>2023-11-07T11:46:09Z</time>
      </trkpt>
      <trkpt lat="45.99825" lon="4.0243">
        <ele>338</ele>
        <time>2023-11-07T11:46:19Z</time>
      </trkpt>
      <trkpt lat="45.99839" lon="4.0243">
        <ele>337</ele>
        <time>2023-11-07T11:46:27Z</time>
      </trkpt>
      <trkpt lat="45.99865" lon="4.02372">
        <ele>338</ele>
        <time>2023-11-07T11:47:04Z</time>
      </trkpt>
      <trkpt lat="45.99886" lon="4.02338">
        <ele>337</ele>
        <time>2023-11-07T11:47:25Z</time>
      </trkpt>
      <trkpt lat="45.99923" lon="4.02268">
        <ele>334</ele>
        <time>2023-11-07T11:48:12Z</time>
      </trkpt>
      <trkpt lat="45.99926" lon="4.02256">
        <ele>335</ele>
        <time>2023-11-07T11:48:19Z</time>
      </trkpt>
      <trkpt lat="45.99947" lon="4.02208">
        <ele>336</ele>
        <time>2023-11-07T11:48:51Z</time>
      </trkpt>
      <trkpt lat="45.99953" lon="4.02194">
        <ele>335</ele>
        <time>2023-11-07T11:49:00Z</time>
      </trkpt>
      <trkpt lat="45.9998" lon="4.02151">
        <ele>337</ele>
        <time>2023-11-07T11:49:27Z</time>
      </trkpt>
      <trkpt lat="46.00003" lon="4.02097">
        <ele>336</ele>
        <time>2023-11-07T11:50:08Z</time>
      </trkpt>
      <trkpt lat="46.00036" lon="4.02037">
        <ele>337</ele>
        <time>2023-11-07T11:50:47Z</time>
      </trkpt>
      <trkpt lat="46.00057" lon="4.02014">
        <ele>335</ele>
        <time>2023-11-07T11:51:05Z</time>
      </trkpt>
      <trkpt lat="46.00052" lon="4.01975">
        <ele>337</ele>
        <time>2023-11-07T11:51:27Z</time>
      </trkpt>
      <trkpt lat="46.00048" lon="4.0197">
        <ele>337</ele>
        <time>2023-11-07T11:51:31Z</time>
      </trkpt>
      <trkpt lat="46.00032" lon="4.01911">
        <ele>338</ele>
        <time>2023-11-07T11:52:08Z</time>
      </trkpt>
      <trkpt lat="46.0003" lon="4.01897">
        <ele>338</ele>
        <time>2023-11-07T11:52:18Z</time>
      </trkpt>
      <trkpt lat="46.00039" lon="4.01894">
        <ele>338</ele>
        <time>2023-11-07T11:52:24Z</time>
      </trkpt>
      <trkpt lat="46.00051" lon="4.0188">
        <ele>340</ele>
        <time>2023-11-07T11:52:36Z</time>
      </trkpt>
      <trkpt lat="46.00052" lon="4.01873">
        <ele>340</ele>
        <time>2023-11-07T11:52:43Z</time>
      </trkpt>
      <trkpt lat="46.00065" lon="4.01854">
        <ele>341</ele>
        <time>2023-11-07T11:53:01Z</time>
      </trkpt>
      <trkpt lat="46.00067" lon="4.01832">
        <ele>342</ele>
        <time>2023-11-07T11:53:15Z</time>
      </trkpt>
      <trkpt lat="46.00062" lon="4.01823">
        <ele>342</ele>
        <time>2023-11-07T11:53:24Z</time>
      </trkpt>
      <trkpt lat="46.00057" lon="4.018">
        <ele>346</ele>
        <time>2023-11-07T11:53:38Z</time>
      </trkpt>
      <trkpt lat="46.00072" lon="4.01788">
        <ele>346</ele>
        <time>2023-11-07T11:54:08Z</time>
      </trkpt>
      <trkpt lat="46.00089" lon="4.01767">
        <ele>345</ele>
        <time>2023-11-07T11:54:52Z</time>
      </trkpt>
      <trkpt lat="46.00063" lon="4.01711">
        <ele>350</ele>
        <time>2023-11-07T11:55:31Z</time>
      </trkpt>
      <trkpt lat="46.0002" lon="4.01614">
        <ele>352</ele>
        <time>2023-11-07T11:56:36Z</time>
      </trkpt>
      <trkpt lat="45.99998" lon="4.01577">
        <ele>354</ele>
        <time>2023-11-07T11:57:05Z</time>
      </trkpt>
      <trkpt lat="45.99975" lon="4.01528">
        <ele>356</ele>
        <time>2023-11-07T11:57:35Z</time>
      </trkpt>
      <trkpt lat="45.99953" lon="4.01479">
        <ele>356</ele>
        <time>2023-11-07T11:58:06Z</time>
      </trkpt>
      <trkpt lat="45.9991" lon="4.01358">
        <ele>358</ele>
        <time>2023-11-07T11:59:19Z</time>
      </trkpt>
      <trkpt lat="45.99893" lon="4.01317">
        <ele>359</ele>
        <time>2023-11-07T11:59:45Z</time>
      </trkpt>
      <trkpt lat="45.99877" lon="4.01273">
        <ele>357</ele>
        <time>2023-11-07T12:00:13Z</time>
      </trkpt>
      <trkpt lat="45.99863" lon="4.0123">
        <ele>359</ele>
        <time>2023-11-07T12:00:39Z</time>
      </trkpt>
      <trkpt lat="45.99856" lon="4.0121">
        <ele>361</ele>
        <time>2023-11-07T12:00:51Z</time>
      </trkpt>
      <trkpt lat="45.99848" lon="4.01189">
        <ele>360</ele>
        <time>2023-11-07T12:01:06Z</time>
      </trkpt>
      <trkpt lat="45.99842" lon="4.01152">
        <ele>360</ele>
        <time>2023-11-07T12:01:25Z</time>
      </trkpt>
      <trkpt lat="45.9982" lon="4.01057">
        <ele>363</ele>
        <time>2023-11-07T12:02:22Z</time>
      </trkpt>
      <trkpt lat="45.99789" lon="4.00929">
        <ele>366</ele>
        <time>2023-11-07T12:03:34Z</time>
      </trkpt>
      <trkpt lat="45.99783" lon="4.00927">
        <ele>366</ele>
        <time>2023-11-07T12:03:38Z</time>
      </trkpt>
      <trkpt lat="45.99734" lon="4.00953">
        <ele>360</ele>
        <time>2023-11-07T12:04:16Z</time>
      </trkpt>
      <trkpt lat="45.99707" lon="4.00976">
        <ele>359</ele>
        <time>2023-11-07T12:04:42Z</time>
      </trkpt>
      <trkpt lat="45.99687" lon="4.00981">
        <ele>358</ele>
        <time>2023-11-07T12:05:00Z</time>
      </trkpt>
      <trkpt lat="45.99678" lon="4.00965">
        <ele>357</ele>
        <time>2023-11-07T12:05:12Z</time>
      </trkpt>
      <trkpt lat="45.99614" lon="4.00895">
        <ele>363</ele>
        <time>2023-11-07T12:06:13Z</time>
      </trkpt>
      <trkpt lat="45.99605" lon="4.00891">
        <ele>367</ele>
        <time>2023-11-07T12:06:21Z</time>
      </trkpt>
      <trkpt lat="45.99587" lon="4.00873">
        <ele>367</ele>
        <time>2023-11-07T12:06:39Z</time>
      </trkpt>
      <trkpt lat="45.99563" lon="4.00854">
        <ele>366</ele>
        <time>2023-11-07T12:06:59Z</time>
      </trkpt>
      <trkpt lat="45.99506" lon="4.00804">
        <ele>368</ele>
        <time>2023-11-07T12:07:50Z</time>
      </trkpt>
      <trkpt lat="45.99498" lon="4.00806">
        <ele>367</ele>
        <time>2023-11-07T12:07:58Z</time>
      </trkpt>
      <trkpt lat="45.99481" lon="4.00818">
        <ele>366</ele>
        <time>2023-11-07T12:08:13Z</time>
      </trkpt>
      <trkpt lat="45.99439" lon="4.00851">
        <ele>365</ele>
        <time>2023-11-07T12:08:50Z</time>
      </trkpt>
      <trkpt lat="45.99305" lon="4.00948">
        <ele>370</ele>
        <time>2023-11-07T12:10:51Z</time>
      </trkpt>
      <trkpt lat="45.99301" lon="4.00973">
        <ele>381</ele>
        <time>2023-11-07T12:13:28Z</time>
      </trkpt>
      <trkpt lat="45.99305" lon="4.0107">
        <ele>376</ele>
        <time>2023-11-07T12:14:25Z</time>
      </trkpt>
      <trkpt lat="45.99299" lon="4.01085">
        <ele>376</ele>
        <time>2023-11-07T12:14:34Z</time>
      </trkpt>
      <trkpt lat="45.99268" lon="4.01109">
        <ele>377</ele>
        <time>2023-11-07T12:15:28Z</time>
      </trkpt>
      <trkpt lat="45.99239" lon="4.01119">
        <ele>381</ele>
        <time>2023-11-07T12:15:53Z</time>
      </trkpt>
      <trkpt lat="45.99213" lon="4.01119">
        <ele>383</ele>
        <time>2023-11-07T12:16:14Z</time>
      </trkpt>
      <trkpt lat="45.99189" lon="4.01117">
        <ele>385</ele>
        <time>2023-11-07T12:16:34Z</time>
      </trkpt>
      <trkpt lat="45.99185" lon="4.01108">
        <ele>384</ele>
        <time>2023-11-07T12:16:40Z</time>
      </trkpt>
      <trkpt lat="45.99193" lon="4.01006">
        <ele>388</ele>
        <time>2023-11-07T12:17:33Z</time>
      </trkpt>
      <trkpt lat="45.99196" lon="4.00971">
        <ele>387</ele>
        <time>2023-11-07T12:17:52Z</time>
      </trkpt>
      <trkpt lat="45.99198" lon="4.00942">
        <ele>388</ele>
        <time>2023-11-07T12:18:10Z</time>
      </trkpt>
      <trkpt lat="45.9912" lon="4.00899">
        <ele>382</ele>
        <time>2023-11-07T12:19:17Z</time>
      </trkpt>
      <trkpt lat="45.99108" lon="4.00897">
        <ele>380</ele>
        <time>2023-11-07T12:19:23Z</time>
      </trkpt>
      <trkpt lat="45.99065" lon="4.00874">
        <ele>380</ele>
        <time>2023-11-07T12:20:03Z</time>
      </trkpt>
      <trkpt lat="45.99028" lon="4.00839">
        <ele>381</ele>
        <time>2023-11-07T12:20:32Z</time>
      </trkpt>
      <trkpt lat="45.99013" lon="4.00806">
        <ele>381</ele>
        <time>2023-11-07T12:20:54Z</time>
      </trkpt>
      <trkpt lat="45.98994" lon="4.00776">
        <ele>378</ele>
        <time>2023-11-07T12:21:19Z</time>
      </trkpt>
      <trkpt lat="45.98992" lon="4.00769">
        <ele>379</ele>
        <time>2023-11-07T12:21:22Z</time>
      </trkpt>
      <trkpt lat="45.98984" lon="4.0077">
        <ele>379</ele>
        <time>2023-11-07T12:21:29Z</time>
      </trkpt>
      <trkpt lat="45.98971" lon="4.00772">
        <ele>377</ele>
        <time>2023-11-07T12:21:41Z</time>
      </trkpt>
      <trkpt lat="45.98935" lon="4.0078">
        <ele>377</ele>
        <time>2023-11-07T12:22:12Z</time>
      </trkpt>
      <trkpt lat="45.98926" lon="4.00779">
        <ele>377</ele>
        <time>2023-11-07T12:22:20Z</time>
      </trkpt>
      <trkpt lat="45.98923" lon="4.00783">
        <ele>377</ele>
        <time>2023-11-07T12:22:23Z</time>
      </trkpt>
      <trkpt lat="45.98918" lon="4.00836">
        <ele>380</ele>
        <time>2023-11-07T12:22:55Z</time>
      </trkpt>
      <trkpt lat="45.98907" lon="4.00927">
        <ele>376</ele>
        <time>2023-11-07T12:23:52Z</time>
      </trkpt>
      <trkpt lat="45.98898" lon="4.00933">
        <ele>376</ele>
        <time>2023-11-07T12:24:00Z</time>
      </trkpt>
      <trkpt lat="45.98849" lon="4.00941">
        <ele>381</ele>
        <time>2023-11-07T12:24:39Z</time>
      </trkpt>
      <trkpt lat="45.98821" lon="4.00942">
        <ele>386</ele>
        <time>2023-11-07T12:25:03Z</time>
      </trkpt>
      <trkpt lat="45.98791" lon="4.00942">
        <ele>387</ele>
        <time>2023-11-07T12:25:26Z</time>
      </trkpt>
      <trkpt lat="45.98755" lon="4.00943">
        <ele>387</ele>
        <time>2023-11-07T12:25:54Z</time>
      </trkpt>
      <trkpt lat="45.98719" lon="4.00944">
        <ele>393</ele>
        <time>2023-11-07T12:26:25Z</time>
      </trkpt>
      <trkpt lat="45.987" lon="4.00932">
        <ele>394</ele>
        <time>2023-11-07T12:26:42Z</time>
      </trkpt>
      <trkpt lat="45.98695" lon="4.00931">
        <ele>394</ele>
        <time>2023-11-07T12:26:44Z</time>
      </trkpt>
      <trkpt lat="45.98681" lon="4.00917">
        <ele>395</ele>
        <time>2023-11-07T12:26:55Z</time>
      </trkpt>
      <trkpt lat="45.98672" lon="4.00913">
        <ele>396</ele>
        <time>2023-11-07T12:27:04Z</time>
      </trkpt>
      <trkpt lat="45.98651" lon="4.00895">
        <ele>397</ele>
        <time>2023-11-07T12:27:24Z</time>
      </trkpt>
      <trkpt lat="45.98627" lon="4.00881">
        <ele>394</ele>
        <time>2023-11-07T12:27:44Z</time>
      </trkpt>
      <trkpt lat="45.98598" lon="4.00853">
        <ele>394</ele>
        <time>2023-11-07T12:28:10Z</time>
      </trkpt>
      <trkpt lat="45.98545" lon="4.00791">
        <ele>395</ele>
        <time>2023-11-07T12:28:58Z</time>
      </trkpt>
      <trkpt lat="45.98504" lon="4.00738">
        <ele>390</ele>
        <time>2023-11-07T12:29:39Z</time>
      </trkpt>
      <trkpt lat="45.9849" lon="4.00724">
        <ele>392</ele>
        <time>2023-11-07T12:29:52Z</time>
      </trkpt>
      <trkpt lat="45.98482" lon="4.00713">
        <ele>390</ele>
        <time>2023-11-07T12:32:22Z</time>
      </trkpt>
      <trkpt lat="45.98451" lon="4.00673">
        <ele>389</ele>
        <time>2023-11-07T12:33:02Z</time>
      </trkpt>
      <trkpt lat="45.98425" lon="4.00645">
        <ele>386</ele>
        <time>2023-11-07T12:33:30Z</time>
      </trkpt>
      <trkpt lat="45.98412" lon="4.00629">
        <ele>385</ele>
        <time>2023-11-07T12:33:42Z</time>
      </trkpt>
      <trkpt lat="45.98372" lon="4.00597">
        <ele>379</ele>
        <time>2023-11-07T12:34:18Z</time>
      </trkpt>
      <trkpt lat="45.98361" lon="4.00593">
        <ele>378</ele>
        <time>2023-11-07T12:34:27Z</time>
      </trkpt>
      <trkpt lat="45.98356" lon="4.00587">
        <ele>378</ele>
        <time>2023-11-07T12:34:33Z</time>
      </trkpt>
      <trkpt lat="45.98355" lon="4.00566">
        <ele>376</ele>
        <time>2023-11-07T12:34:44Z</time>
      </trkpt>
      <trkpt lat="45.98363" lon="4.00542">
        <ele>375</ele>
        <time>2023-11-07T12:35:01Z</time>
      </trkpt>
      <trkpt lat="45.98369" lon="4.00537">
        <ele>374</ele>
        <time>2023-11-07T12:35:07Z</time>
      </trkpt>
      <trkpt lat="45.98397" lon="4.00502">
        <ele>374</ele>
        <time>2023-11-07T12:35:38Z</time>
      </trkpt>
      <trkpt lat="45.98399" lon="4.0049">
        <ele>374</ele>
        <time>2023-11-07T12:35:45Z</time>
      </trkpt>
      <trkpt lat="45.98394" lon="4.00469">
        <ele>371</ele>
        <time>2023-11-07T12:35:57Z</time>
      </trkpt>
      <trkpt lat="45.98374" lon="4.00432">
        <ele>366</ele>
        <time>2023-11-07T12:36:24Z</time>
      </trkpt>
      <trkpt lat="45.98369" lon="4.00414">
        <ele>364</ele>
        <time>2023-11-07T12:36:33Z</time>
      </trkpt>
      <trkpt lat="45.98363" lon="4.00403">
        <ele>363</ele>
        <time>2023-11-07T12:36:41Z</time>
      </trkpt>
      <trkpt lat="45.9832" lon="4.00354">
        <ele>354</ele>
        <time>2023-11-07T12:37:25Z</time>
      </trkpt>
      <trkpt lat="45.98316" lon="4.00355">
        <ele>353</ele>
        <time>2023-11-07T12:37:28Z</time>
      </trkpt>
      <trkpt lat="45.98314" lon="4.00363">
        <ele>351</ele>
        <time>2023-11-07T12:37:32Z</time>
      </trkpt>
      <trkpt lat="45.98314" lon="4.00381">
        <ele>346</ele>
        <time>2023-11-07T12:37:44Z</time>
      </trkpt>
      <trkpt lat="45.983" lon="4.00367">
        <ele>344</ele>
        <time>2023-11-07T12:38:00Z</time>
      </trkpt>
      <trkpt lat="45.98284" lon="4.00345">
        <ele>339</ele>
        <time>2023-11-07T12:38:16Z</time>
      </trkpt>
      <trkpt lat="45.98278" lon="4.00351">
        <ele>337</ele>
        <time>2023-11-07T12:38:20Z</time>
      </trkpt>
      <trkpt lat="45.98273" lon="4.00417">
        <ele>321</ele>
        <time>2023-11-07T12:39:05Z</time>
      </trkpt>
      <trkpt lat="45.98264" lon="4.00413">
        <ele>315</ele>
        <time>2023-11-07T12:39:15Z</time>
      </trkpt>
      <trkpt lat="45.98256" lon="4.00413">
        <ele>312</ele>
        <time>2023-11-07T12:39:22Z</time>
      </trkpt>
      <trkpt lat="45.98234" lon="4.00402">
        <ele>307</ele>
        <time>2023-11-07T12:39:42Z</time>
      </trkpt>
      <trkpt lat="45.98226" lon="4.00382">
        <ele>307</ele>
        <time>2023-11-07T12:39:58Z</time>
      </trkpt>
      <trkpt lat="45.98225" lon="4.00372">
        <ele>306</ele>
        <time>2023-11-07T12:40:05Z</time>
      </trkpt>
      <trkpt lat="45.98219" lon="4.00349">
        <ele>302</ele>
        <time>2023-11-07T12:40:43Z</time>
      </trkpt>
      <trkpt lat="45.98215" lon="4.00321">
        <ele>305</ele>
        <time>2023-11-07T12:41:01Z</time>
      </trkpt>
      <trkpt lat="45.9822" lon="4.00259">
        <ele>305</ele>
        <time>2023-11-07T12:41:37Z</time>
      </trkpt>
      <trkpt lat="45.98239" lon="4.00228">
        <ele>311</ele>
        <time>2023-11-07T12:42:02Z</time>
      </trkpt>
      <trkpt lat="45.98247" lon="4.00223">
        <ele>313</ele>
        <time>2023-11-07T12:42:10Z</time>
      </trkpt>
      <trkpt lat="45.98254" lon="4.00209">
        <ele>314</ele>
        <time>2023-11-07T12:42:23Z</time>
      </trkpt>
      <trkpt lat="45.98273" lon="4.00194">
        <ele>313</ele>
        <time>2023-11-07T12:42:42Z</time>
      </trkpt>
      <trkpt lat="45.98281" lon="4.00179">
        <ele>314</ele>
        <time>2023-11-07T12:42:57Z</time>
      </trkpt>
      <trkpt lat="45.98277" lon="4.00136">
        <ele>315</ele>
        <time>2023-11-07T12:43:22Z</time>
      </trkpt>
      <trkpt lat="45.98272" lon="4.00125">
        <ele>316</ele>
        <time>2023-11-07T12:43:29Z</time>
      </trkpt>
      <trkpt lat="45.98274" lon="4.00095">
        <ele>315</ele>
        <time>2023-11-07T12:43:47Z</time>
      </trkpt>
      <trkpt lat="45.9827" lon="4.00082">
        <ele>315</ele>
        <time>2023-11-07T12:43:53Z</time>
      </trkpt>
      <trkpt lat="45.98273" lon="4.00057">
        <ele>316</ele>
        <time>2023-11-07T12:44:07Z</time>
      </trkpt>
      <trkpt lat="45.98291" lon="4.00034">
        <ele>320</ele>
        <time>2023-11-07T12:44:29Z</time>
      </trkpt>
      <trkpt lat="45.98307" lon="4.00023">
        <ele>321</ele>
        <time>2023-11-07T12:44:43Z</time>
      </trkpt>
      <trkpt lat="45.98313" lon="4.00011">
        <ele>321</ele>
        <time>2023-11-07T12:44:53Z</time>
      </trkpt>
      <trkpt lat="45.98321" lon="4.00003">
        <ele>319</ele>
        <time>2023-11-07T12:45:01Z</time>
      </trkpt>
      <trkpt lat="45.98321" lon="3.99984">
        <ele>316</ele>
        <time>2023-11-07T12:45:13Z</time>
      </trkpt>
      <trkpt lat="45.98316" lon="3.99966">
        <ele>310</ele>
        <time>2023-11-07T12:45:21Z</time>
      </trkpt>
      <trkpt lat="45.98306" lon="3.99945">
        <ele>311</ele>
        <time>2023-11-07T12:45:38Z</time>
      </trkpt>
      <trkpt lat="45.98299" lon="3.99939">
        <ele>310</ele>
        <time>2023-11-07T12:45:45Z</time>
      </trkpt>
      <trkpt lat="45.98297" lon="3.99925">
        <ele>312</ele>
        <time>2023-11-07T12:45:57Z</time>
      </trkpt>
      <trkpt lat="45.98284" lon="3.99903">
        <ele>317</ele>
        <time>2023-11-07T12:46:16Z</time>
      </trkpt>
      <trkpt lat="45.98284" lon="3.99895">
        <ele>315</ele>
        <time>2023-11-07T12:46:21Z</time>
      </trkpt>
      <trkpt lat="45.98271" lon="3.99878">
        <ele>317</ele>
        <time>2023-11-07T12:46:38Z</time>
      </trkpt>
      <trkpt lat="45.98268" lon="3.99866">
        <ele>318</ele>
        <time>2023-11-07T12:46:48Z</time>
      </trkpt>
      <trkpt lat="45.98279" lon="3.99845">
        <ele>325</ele>
        <time>2023-11-07T12:47:08Z</time>
      </trkpt>
      <trkpt lat="45.98306" lon="3.99845">
        <ele>324</ele>
        <time>2023-11-07T12:47:34Z</time>
      </trkpt>
      <trkpt lat="45.98319" lon="3.99822">
        <ele>328</ele>
        <time>2023-11-07T12:47:52Z</time>
      </trkpt>
      <trkpt lat="45.98326" lon="3.99814">
        <ele>329</ele>
        <time>2023-11-07T12:47:58Z</time>
      </trkpt>
      <trkpt lat="45.98338" lon="3.99786">
        <ele>331</ele>
        <time>2023-11-07T12:48:17Z</time>
      </trkpt>
      <trkpt lat="45.98343" lon="3.99782">
        <ele>327</ele>
        <time>2023-11-07T12:48:19Z</time>
      </trkpt>
      <trkpt lat="45.98347" lon="3.99752">
        <ele>322</ele>
        <time>2023-11-07T12:48:37Z</time>
      </trkpt>
      <trkpt lat="45.98359" lon="3.99709">
        <ele>325</ele>
        <time>2023-11-07T12:49:02Z</time>
      </trkpt>
      <trkpt lat="45.98357" lon="3.99659">
        <ele>329</ele>
        <time>2023-11-07T12:49:31Z</time>
      </trkpt>
      <trkpt lat="45.98338" lon="3.99636">
        <ele>325</ele>
        <time>2023-11-07T12:49:53Z</time>
      </trkpt>
      <trkpt lat="45.98325" lon="3.99626">
        <ele>323</ele>
        <time>2023-11-07T12:50:04Z</time>
      </trkpt>
      <trkpt lat="45.98319" lon="3.99615">
        <ele>322</ele>
        <time>2023-11-07T12:50:13Z</time>
      </trkpt>
      <trkpt lat="45.98309" lon="3.99558">
        <ele>323</ele>
        <time>2023-11-07T12:50:46Z</time>
      </trkpt>
      <trkpt lat="45.98304" lon="3.99555">
        <ele>323</ele>
        <time>2023-11-07T12:50:50Z</time>
      </trkpt>
      <trkpt lat="45.98296" lon="3.99505">
        <ele>326</ele>
        <time>2023-11-07T12:51:19Z</time>
      </trkpt>
      <trkpt lat="45.98291" lon="3.99481">
        <ele>324</ele>
        <time>2023-11-07T12:51:40Z</time>
      </trkpt>
      <trkpt lat="45.9827" lon="3.99482">
        <ele>321</ele>
        <time>2023-11-07T12:52:01Z</time>
      </trkpt>
      <trkpt lat="45.98257" lon="3.99489">
        <ele>320</ele>
        <time>2023-11-07T12:52:16Z</time>
      </trkpt>
      <trkpt lat="45.98243" lon="3.99494">
        <ele>323</ele>
        <time>2023-11-07T12:52:44Z</time>
      </trkpt>
      <trkpt lat="45.98235" lon="3.99496">
        <ele>322</ele>
        <time>2023-11-07T12:53:06Z</time>
      </trkpt>
      <trkpt lat="45.98221" lon="3.99491">
        <ele>327</ele>
        <time>2023-11-07T12:53:25Z</time>
      </trkpt>
      <trkpt lat="45.98213" lon="3.99496">
        <ele>327</ele>
        <time>2023-11-07T12:53:35Z</time>
      </trkpt>
      <trkpt lat="45.98207" lon="3.99495">
        <ele>327</ele>
        <time>2023-11-07T12:53:40Z</time>
      </trkpt>
      <trkpt lat="45.98179" lon="3.99506">
        <ele>331</ele>
        <time>2023-11-07T12:54:11Z</time>
      </trkpt>
      <trkpt lat="45.98175" lon="3.99504">
        <ele>331</ele>
        <time>2023-11-07T12:54:16Z</time>
      </trkpt>
      <trkpt lat="45.98128" lon="3.99513">
        <ele>337</ele>
        <time>2023-11-07T12:54:57Z</time>
      </trkpt>
      <trkpt lat="45.98094" lon="3.99512">
        <ele>341</ele>
        <time>2023-11-07T12:55:25Z</time>
      </trkpt>
      <trkpt lat="45.98088" lon="3.99517">
        <ele>341</ele>
        <time>2023-11-07T12:55:31Z</time>
      </trkpt>
      <trkpt lat="45.98035" lon="3.99519">
        <ele>344</ele>
        <time>2023-11-07T12:56:17Z</time>
      </trkpt>
      <trkpt lat="45.97982" lon="3.99525">
        <ele>349</ele>
        <time>2023-11-07T12:57:05Z</time>
      </trkpt>
      <trkpt lat="45.97971" lon="3.99529">
        <ele>349</ele>
        <time>2023-11-07T12:57:15Z</time>
      </trkpt>
      <trkpt lat="45.97938" lon="3.99529">
        <ele>354</ele>
        <time>2023-11-07T12:57:42Z</time>
      </trkpt>
      <trkpt lat="45.97943" lon="3.99589">
        <ele>350</ele>
        <time>2023-11-07T12:58:17Z</time>
      </trkpt>
      <trkpt lat="45.97968" lon="3.99674">
        <ele>352</ele>
        <time>2023-11-07T12:59:06Z</time>
      </trkpt>
      <trkpt lat="45.97981" lon="3.99758">
        <ele>354</ele>
        <time>2023-11-07T12:59:53Z</time>
      </trkpt>
      <trkpt lat="45.97974" lon="3.99818">
        <ele>353</ele>
        <time>2023-11-07T13:00:26Z</time>
      </trkpt>
      <trkpt lat="45.9797" lon="3.99843">
        <ele>352</ele>
        <time>2023-11-07T13:00:41Z</time>
      </trkpt>
      <trkpt lat="45.97971" lon="4.00001">
        <ele>358</ele>
        <time>2023-11-07T13:02:08Z</time>
      </trkpt>
      <trkpt lat="45.97969" lon="4.00008">
        <ele>357</ele>
        <time>2023-11-07T13:02:16Z</time>
      </trkpt>
      <trkpt lat="45.97963" lon="4.00009">
        <ele>357</ele>
        <time>2023-11-07T13:02:23Z</time>
      </trkpt>
      <trkpt lat="45.9786" lon="3.99937">
        <ele>358</ele>
        <time>2023-11-07T13:03:57Z</time>
      </trkpt>
      <trkpt lat="45.97817" lon="3.99928">
        <ele>358</ele>
        <time>2023-11-07T13:04:30Z</time>
      </trkpt>
      <trkpt lat="45.97776" lon="3.9993">
        <ele>359</ele>
        <time>2023-11-07T13:05:03Z</time>
      </trkpt>
      <trkpt lat="45.97749" lon="3.99934">
        <ele>360</ele>
        <time>2023-11-07T13:05:24Z</time>
      </trkpt>
      <trkpt lat="45.97726" lon="3.99945">
        <ele>362</ele>
        <time>2023-11-07T13:05:46Z</time>
      </trkpt>
      <trkpt lat="45.97672" lon="3.99955">
        <ele>385.9</ele>
        <time>2023-11-07T13:06:32Z</time>
      </trkpt>
      <trkpt lat="45.97651" lon="3.99952">
        <ele>367</ele>
        <time>2023-11-07T13:06:49Z</time>
      </trkpt>
      <trkpt lat="45.97626" lon="3.9995">
        <ele>368</ele>
        <time>2023-11-07T13:07:09Z</time>
      </trkpt>
      <trkpt lat="45.97615" lon="3.99947">
        <ele>368</ele>
        <time>2023-11-07T13:07:20Z</time>
      </trkpt>
      <trkpt lat="45.97599" lon="3.99944">
        <ele>368</ele>
        <time>2023-11-07T13:07:32Z</time>
      </trkpt>
      <trkpt lat="45.97498" lon="3.99937">
        <ele>376</ele>
        <time>2023-11-07T13:08:50Z</time>
      </trkpt>
      <trkpt lat="45.97455" lon="3.99936">
        <ele>371</ele>
        <time>2023-11-07T13:09:27Z</time>
      </trkpt>
      <trkpt lat="45.97417" lon="3.99941">
        <ele>370</ele>
        <time>2023-11-07T13:09:54Z</time>
      </trkpt>
      <trkpt lat="45.97394" lon="3.99938">
        <ele>368</ele>
        <time>2023-11-07T13:10:11Z</time>
      </trkpt>
      <trkpt lat="45.97375" lon="3.99942">
        <ele>368</ele>
        <time>2023-11-07T13:10:25Z</time>
      </trkpt>
      <trkpt lat="45.97326" lon="3.99935">
        <ele>366</ele>
        <time>2023-11-07T13:11:45Z</time>
      </trkpt>
      <trkpt lat="45.97312" lon="4.00102">
        <ele>365</ele>
        <time>2023-11-07T13:13:18Z</time>
      </trkpt>
      <trkpt lat="45.9731" lon="4.0014">
        <ele>360</ele>
        <time>2023-11-07T13:13:38Z</time>
      </trkpt>
      <trkpt lat="45.97298" lon="4.00171">
        <ele>358</ele>
        <time>2023-11-07T13:13:57Z</time>
      </trkpt>
      <trkpt lat="45.97274" lon="4.00202">
        <ele>357</ele>
        <time>2023-11-07T13:14:19Z</time>
      </trkpt>
      <trkpt lat="45.97253" lon="4.0021">
        <ele>352</ele>
        <time>2023-11-07T13:14:35Z</time>
      </trkpt>
      <trkpt lat="45.97233" lon="4.00234">
        <ele>354</ele>
        <time>2023-11-07T13:14:55Z</time>
      </trkpt>
      <trkpt lat="45.97221" lon="4.00256">
        <ele>354</ele>
        <time>2023-11-07T13:15:12Z</time>
      </trkpt>
      <trkpt lat="45.97218" lon="4.00274">
        <ele>356</ele>
        <time>2023-11-07T13:15:22Z</time>
      </trkpt>
      <trkpt lat="45.97224" lon="4.00302">
        <ele>357</ele>
        <time>2023-11-07T13:15:38Z</time>
      </trkpt>
      <trkpt lat="45.97219" lon="4.00321">
        <ele>357</ele>
        <time>2023-11-07T13:15:50Z</time>
      </trkpt>
      <trkpt lat="45.97208" lon="4.00337">
        <ele>358</ele>
        <time>2023-11-07T13:16:03Z</time>
      </trkpt>
      <trkpt lat="45.97181" lon="4.00346">
        <ele>355</ele>
        <time>2023-11-07T13:16:22Z</time>
      </trkpt>
      <trkpt lat="45.97173" lon="4.00348">
        <ele>355</ele>
        <time>2023-11-07T13:16:32Z</time>
      </trkpt>
      <trkpt lat="45.97164" lon="4.00349">
        <ele>354</ele>
        <time>2023-11-07T13:16:39Z</time>
      </trkpt>
      <trkpt lat="45.97143" lon="4.00343">
        <ele>356</ele>
        <time>2023-11-07T13:16:56Z</time>
      </trkpt>
      <trkpt lat="45.97109" lon="4.00321">
        <ele>360</ele>
        <time>2023-11-07T13:17:25Z</time>
      </trkpt>
      <trkpt lat="45.97102" lon="4.00323">
        <ele>358</ele>
        <time>2023-11-07T13:17:31Z</time>
      </trkpt>
      <trkpt lat="45.97094" lon="4.0032">
        <ele>359</ele>
        <time>2023-11-07T13:17:40Z</time>
      </trkpt>
      <trkpt lat="45.97086" lon="4.00315">
        <ele>377.7</ele>
        <time>2023-11-07T13:19:08Z</time>
      </trkpt>
      <trkpt lat="45.97076" lon="4.00331">
        <ele>367</ele>
        <time>2023-11-07T13:19:25Z</time>
      </trkpt>
      <trkpt lat="45.97063" lon="4.00334">
        <ele>365</ele>
        <time>2023-11-07T13:19:39Z</time>
      </trkpt>
      <trkpt lat="45.97023" lon="4.00329">
        <ele>363</ele>
        <time>2023-11-07T13:20:20Z</time>
      </trkpt>
      <trkpt lat="45.96999" lon="4.00335">
        <ele>358</ele>
        <time>2023-11-07T13:20:42Z</time>
      </trkpt>
      <trkpt lat="45.9697" lon="4.00333">
        <ele>348</ele>
        <time>2023-11-07T13:21:16Z</time>
      </trkpt>
      <trkpt lat="45.96957" lon="4.00337">
        <ele>348</ele>
        <time>2023-11-07T13:21:26Z</time>
      </trkpt>
      <trkpt lat="45.9694" lon="4.0034">
        <ele>349</ele>
        <time>2023-11-07T13:21:42Z</time>
      </trkpt>
      <trkpt lat="45.96936" lon="4.00338">
        <ele>348</ele>
        <time>2023-11-07T13:21:46Z</time>
      </trkpt>
      <trkpt lat="45.96923" lon="4.00338">
        <ele>346</ele>
        <time>2023-11-07T13:21:55Z</time>
      </trkpt>
      <trkpt lat="45.96917" lon="4.00346">
        <ele>348</ele>
        <time>2023-11-07T13:22:01Z</time>
      </trkpt>
      <trkpt lat="45.96915" lon="4.00358">
        <ele>348</ele>
        <time>2023-11-07T13:22:08Z</time>
      </trkpt>
      <trkpt lat="45.96917" lon="4.00385">
        <ele>350</ele>
        <time>2023-11-07T13:22:25Z</time>
      </trkpt>
      <trkpt lat="45.96931" lon="4.00403">
        <ele>356</ele>
        <time>2023-11-07T13:22:49Z</time>
      </trkpt>
      <trkpt lat="45.96939" lon="4.00421">
        <ele>361</ele>
        <time>2023-11-07T13:23:10Z</time>
      </trkpt>
      <trkpt lat="45.96922" lon="4.00505">
        <ele>366</ele>
        <time>2023-11-07T13:24:10Z</time>
      </trkpt>
      <trkpt lat="45.96917" lon="4.0051">
        <ele>365</ele>
        <time>2023-11-07T13:24:16Z</time>
      </trkpt>
      <trkpt lat="45.96886" lon="4.00576">
        <ele>364</ele>
        <time>2023-11-07T13:25:16Z</time>
      </trkpt>
      <trkpt lat="45.9685" lon="4.00608">
        <ele>362</ele>
        <time>2023-11-07T13:25:58Z</time>
      </trkpt>
      <trkpt lat="45.96825" lon="4.00623">
        <ele>362</ele>
        <time>2023-11-07T13:26:17Z</time>
      </trkpt>
      <trkpt lat="45.96818" lon="4.00633">
        <ele>360</ele>
        <time>2023-11-07T13:26:26Z</time>
      </trkpt>
      <trkpt lat="45.9681" lon="4.00656">
        <ele>365</ele>
        <time>2023-11-07T13:26:46Z</time>
      </trkpt>
      <trkpt lat="45.96804" lon="4.00691">
        <ele>371</ele>
        <time>2023-11-07T13:27:08Z</time>
      </trkpt>
      <trkpt lat="45.96796" lon="4.00716">
        <ele>369</ele>
        <time>2023-11-07T13:27:20Z</time>
      </trkpt>
      <trkpt lat="45.9676" lon="4.0077">
        <ele>369</ele>
        <time>2023-11-07T13:28:05Z</time>
      </trkpt>
      <trkpt lat="45.96738" lon="4.00783">
        <ele>370</ele>
        <time>2023-11-07T13:28:28Z</time>
      </trkpt>
      <trkpt lat="45.96704" lon="4.00795">
        <ele>376</ele>
        <time>2023-11-07T13:29:30Z</time>
      </trkpt>
      <trkpt lat="45.96682" lon="4.00796">
        <ele>377</ele>
        <time>2023-11-07T13:29:49Z</time>
      </trkpt>
      <trkpt lat="45.96647" lon="4.0081">
        <ele>385</ele>
        <time>2023-11-07T13:31:20Z</time>
      </trkpt>
      <trkpt lat="45.96649" lon="4.00819">
        <ele>384</ele>
        <time>2023-11-07T13:33:28Z</time>
      </trkpt>
      <trkpt lat="45.96634" lon="4.00821">
        <ele>385</ele>
        <time>2023-11-07T13:34:00Z</time>
      </trkpt>
      <trkpt lat="45.96623" lon="4.00832">
        <ele>384</ele>
        <time>2023-11-07T13:34:16Z</time>
      </trkpt>
      <trkpt lat="45.96613" lon="4.00835">
        <ele>384</ele>
        <time>2023-11-07T13:34:25Z</time>
      </trkpt>
      <trkpt lat="45.96593" lon="4.00833">
        <ele>382</ele>
        <time>2023-11-07T13:34:42Z</time>
      </trkpt>
      <trkpt lat="45.96589" lon="4.0083">
        <ele>383</ele>
        <time>2023-11-07T13:34:47Z</time>
      </trkpt>
      <trkpt lat="45.96586" lon="4.00836">
        <ele>383</ele>
        <time>2023-11-07T13:34:52Z</time>
      </trkpt>
      <trkpt lat="45.96577" lon="4.00839">
        <ele>385</ele>
        <time>2023-11-07T13:35:26Z</time>
      </trkpt>
      <trkpt lat="45.96565" lon="4.00861">
        <ele>383</ele>
        <time>2023-11-07T13:35:42Z</time>
      </trkpt>
      <trkpt lat="45.96565" lon="4.0087">
        <ele>384</ele>
        <time>2023-11-07T13:35:54Z</time>
      </trkpt>
      <trkpt lat="45.9656" lon="4.00876">
        <ele>382</ele>
        <time>2023-11-07T13:36:01Z</time>
      </trkpt>
      <trkpt lat="45.96548" lon="4.00879">
        <ele>381</ele>
        <time>2023-11-07T13:36:15Z</time>
      </trkpt>
      <trkpt lat="45.96546" lon="4.00889">
        <ele>381</ele>
        <time>2023-11-07T13:36:26Z</time>
      </trkpt>
      <trkpt lat="45.96535" lon="4.00897">
        <ele>381</ele>
        <time>2023-11-07T13:37:01Z</time>
      </trkpt>
      <trkpt lat="45.96529" lon="4.00899">
        <ele>379</ele>
        <time>2023-11-07T13:37:08Z</time>
      </trkpt>
      <trkpt lat="45.96499" lon="4.00885">
        <ele>375</ele>
        <time>2023-11-07T13:37:48Z</time>
      </trkpt>
      <trkpt lat="45.96496" lon="4.00891">
        <ele>374</ele>
        <time>2023-11-07T13:38:39Z</time>
      </trkpt>
      <trkpt lat="45.96496" lon="4.00911">
        <ele>371</ele>
        <time>2023-11-07T13:38:53Z</time>
      </trkpt>
      <trkpt lat="45.96485" lon="4.00963">
        <ele>363</ele>
        <time>2023-11-07T13:39:31Z</time>
      </trkpt>
      <trkpt lat="45.96478" lon="4.00972">
        <ele>362</ele>
        <time>2023-11-07T13:39:40Z</time>
      </trkpt>
      <trkpt lat="45.96467" lon="4.00996">
        <ele>359</ele>
        <time>2023-11-07T13:40:05Z</time>
      </trkpt>
      <trkpt lat="45.96459" lon="4.01011">
        <ele>357</ele>
        <time>2023-11-07T13:40:15Z</time>
      </trkpt>
      <trkpt lat="45.96447" lon="4.01049">
        <ele>355</ele>
        <time>2023-11-07T13:40:44Z</time>
      </trkpt>
      <trkpt lat="45.96443" lon="4.01087">
        <ele>353</ele>
        <time>2023-11-07T13:41:11Z</time>
      </trkpt>
      <trkpt lat="45.96454" lon="4.0112">
        <ele>356</ele>
        <time>2023-11-07T13:41:34Z</time>
      </trkpt>
      <trkpt lat="45.96459" lon="4.01126">
        <ele>356</ele>
        <time>2023-11-07T13:41:42Z</time>
      </trkpt>
      <trkpt lat="45.96463" lon="4.01121">
        <ele>355</ele>
        <time>2023-11-07T13:41:50Z</time>
      </trkpt>
      <trkpt lat="45.96473" lon="4.01124">
        <ele>354</ele>
        <time>2023-11-07T13:42:03Z</time>
      </trkpt>
      <trkpt lat="45.96477" lon="4.01122">
        <ele>355</ele>
        <time>2023-11-07T13:42:17Z</time>
      </trkpt>
      <trkpt lat="45.96482" lon="4.0111">
        <ele>357</ele>
        <time>2023-11-07T13:42:41Z</time>
      </trkpt>
      <trkpt lat="45.96481" lon="4.01105">
        <ele>358</ele>
        <time>2023-11-07T13:42:47Z</time>
      </trkpt>
      <trkpt lat="45.96485" lon="4.011">
        <ele>358</ele>
        <time>2023-11-07T13:42:51Z</time>
      </trkpt>
      <trkpt lat="45.96481" lon="4.01089">
        <ele>361</ele>
        <time>2023-11-07T13:43:00Z</time>
      </trkpt>
      <trkpt lat="45.96475" lon="4.01082">
        <ele>364</ele>
        <time>2023-11-07T13:43:09Z</time>
      </trkpt>
      <trkpt lat="45.96473" lon="4.01071">
        <ele>365</ele>
        <time>2023-11-07T13:43:18Z</time>
      </trkpt>
      <trkpt lat="45.96479" lon="4.01061">
        <ele>364</ele>
        <time>2023-11-07T13:43:34Z</time>
      </trkpt>
      <trkpt lat="45.96477" lon="4.01054">
        <ele>367</ele>
        <time>2023-11-07T13:44:58Z</time>
      </trkpt>
      <trkpt lat="45.96484" lon="4.01062">
        <ele>376</ele>
        <time>2023-11-07T13:46:49Z</time>
      </trkpt>
      <trkpt lat="45.96483" lon="4.01074">
        <ele>375</ele>
        <time>2023-11-07T13:47:02Z</time>
      </trkpt>
      <trkpt lat="45.96479" lon="4.01064">
        <ele>374</ele>
        <time>2023-11-07T13:47:26Z</time>
      </trkpt>
      <trkpt lat="45.96475" lon="4.01063">
        <ele>373</ele>
        <time>2023-11-07T13:47:32Z</time>
      </trkpt>
      <trkpt lat="45.96472" lon="4.0107">
        <ele>373</ele>
        <time>2023-11-07T13:47:52Z</time>
      </trkpt>
      <trkpt lat="45.96472" lon="4.01079">
        <ele>371</ele>
        <time>2023-11-07T13:48:01Z</time>
      </trkpt>
      <trkpt lat="45.96475" lon="4.01081">
        <ele>371</ele>
        <time>2023-11-07T13:48:05Z</time>
      </trkpt>
      <trkpt lat="45.96482" lon="4.01116">
        <ele>364</ele>
        <time>2023-11-07T13:48:40Z</time>
      </trkpt>
      <trkpt lat="45.96478" lon="4.01129">
        <ele>362</ele>
        <time>2023-11-07T13:48:50Z</time>
      </trkpt>
      <trkpt lat="45.96483" lon="4.01158">
        <ele>357</ele>
        <time>2023-11-07T13:50:30Z</time>
      </trkpt>
      <trkpt lat="45.96483" lon="4.01183">
        <ele>355</ele>
        <time>2023-11-07T13:50:45Z</time>
      </trkpt>
      <trkpt lat="45.9649" lon="4.01195">
        <ele>354</ele>
        <time>2023-11-07T13:50:55Z</time>
      </trkpt>
      <trkpt lat="45.96494" lon="4.01193">
        <ele>354</ele>
        <time>2023-11-07T13:51:14Z</time>
      </trkpt>
      <trkpt lat="45.96494" lon="4.01197">
        <ele>353</ele>
        <time>2023-11-07T13:52:36Z</time>
      </trkpt>
      <trkpt lat="45.96485" lon="4.01201">
        <ele>355</ele>
        <time>2023-11-07T13:52:58Z</time>
      </trkpt>
      <trkpt lat="45.96482" lon="4.01197">
        <ele>354</ele>
        <time>2023-11-07T13:53:09Z</time>
      </trkpt>
      <trkpt lat="45.96474" lon="4.01194">
        <ele>353</ele>
        <time>2023-11-07T13:53:19Z</time>
      </trkpt>
      <trkpt lat="45.96471" lon="4.01187">
        <ele>352</ele>
        <time>2023-11-07T13:53:26Z</time>
      </trkpt>
      <trkpt lat="45.96461" lon="4.01171">
        <ele>352</ele>
        <time>2023-11-07T13:54:48Z</time>
      </trkpt>
      <trkpt lat="45.96455" lon="4.01161">
        <ele>354.5</ele>
        <time>2023-11-07T13:58:39Z</time>
      </trkpt>
      <trkpt lat="45.96441" lon="4.01165">
        <ele>355</ele>
        <time>2023-11-07T14:02:05Z</time>
      </trkpt>
      <trkpt lat="45.96435" lon="4.01152">
        <ele>355</ele>
        <time>2023-11-07T14:02:19Z</time>
      </trkpt>
      <trkpt lat="45.96438" lon="4.01144">
        <ele>354</ele>
        <time>2023-11-07T14:02:25Z</time>
      </trkpt>
      <trkpt lat="45.96432" lon="4.01129">
        <ele>350</ele>
        <time>2023-11-07T14:02:52Z</time>
      </trkpt>
      <trkpt lat="45.96426" lon="4.01132">
        <ele>339</ele>
        <time>2023-11-07T14:04:07Z</time>
      </trkpt>
      <trkpt lat="45.96441" lon="4.01122">
        <ele>342</ele>
        <time>2023-11-07T14:04:25Z</time>
      </trkpt>
      <trkpt lat="45.96438" lon="4.01096">
        <ele>347</ele>
        <time>2023-11-07T14:04:42Z</time>
      </trkpt>
      <trkpt lat="45.96441" lon="4.01086">
        <ele>347</ele>
        <time>2023-11-07T14:04:50Z</time>
      </trkpt>
      <trkpt lat="45.96438" lon="4.01054">
        <ele>345</ele>
        <time>2023-11-07T14:05:14Z</time>
      </trkpt>
      <trkpt lat="45.96461" lon="4.01007">
        <ele>345</ele>
        <time>2023-11-07T14:05:54Z</time>
      </trkpt>
      <trkpt lat="45.96465" lon="4.00987">
        <ele>345</ele>
        <time>2023-11-07T14:06:08Z</time>
      </trkpt>
      <trkpt lat="45.96467" lon="4.00977">
        <ele>351</ele>
        <time>2023-11-07T14:06:52Z</time>
      </trkpt>
      <trkpt lat="45.96477" lon="4.0097">
        <ele>358</ele>
        <time>2023-11-07T14:08:23Z</time>
      </trkpt>
      <trkpt lat="45.96487" lon="4.00952">
        <ele>359</ele>
        <time>2023-11-07T14:08:44Z</time>
      </trkpt>
      <trkpt lat="45.96494" lon="4.00902">
        <ele>373.9</ele>
        <time>2023-11-07T14:09:36Z</time>
      </trkpt>
      <trkpt lat="45.96499" lon="4.00843">
        <ele>371</ele>
        <time>2023-11-07T14:11:07Z</time>
      </trkpt>
      <trkpt lat="45.96505" lon="4.00819">
        <ele>377</ele>
        <time>2023-11-07T14:11:42Z</time>
      </trkpt>
      <trkpt lat="45.96521" lon="4.00753">
        <ele>377</ele>
        <time>2023-11-07T14:12:34Z</time>
      </trkpt>
      <trkpt lat="45.96531" lon="4.00732">
        <ele>379</ele>
        <time>2023-11-07T14:12:51Z</time>
      </trkpt>
      <trkpt lat="45.96593" lon="4.00602">
        <ele>385</ele>
        <time>2023-11-07T14:14:28Z</time>
      </trkpt>
      <trkpt lat="45.96606" lon="4.00533">
        <ele>390</ele>
        <time>2023-11-07T14:15:14Z</time>
      </trkpt>
      <trkpt lat="45.96608" lon="4.00397">
        <ele>397</ele>
        <time>2023-11-07T14:16:45Z</time>
      </trkpt>
      <trkpt lat="45.96615" lon="4.00385">
        <ele>398</ele>
        <time>2023-11-07T14:16:56Z</time>
      </trkpt>
      <trkpt lat="45.96616" lon="4.00376">
        <ele>396</ele>
        <time>2023-11-07T14:17:03Z</time>
      </trkpt>
      <trkpt lat="45.96625" lon="4.00355">
        <ele>394</ele>
        <time>2023-11-07T14:17:14Z</time>
      </trkpt>
      <trkpt lat="45.96625" lon="4.00323">
        <ele>394</ele>
        <time>2023-11-07T14:17:35Z</time>
      </trkpt>
      <trkpt lat="45.96627" lon="4.00299">
        <ele>403.2</ele>
      </trkpt>
      <trkpt lat="45.9664" lon="4.0028">
        <ele>401.2</ele>
        <time>2023-11-07T14:18:28Z</time>
      </trkpt>
      <trkpt lat="45.96661" lon="4.00256">
        <ele>395</ele>
        <time>2023-11-07T14:18:54Z</time>
      </trkpt>
      <trkpt lat="45.96666" lon="4.00252">
        <ele>394</ele>
        <time>2023-11-07T14:18:59Z</time>
      </trkpt>
      <trkpt lat="45.96672" lon="4.00235">
        <ele>393</ele>
        <time>2023-11-07T14:19:10Z</time>
      </trkpt>
      <trkpt lat="45.96689" lon="4.00206">
        <ele>392</ele>
        <time>2023-11-07T14:19:35Z</time>
      </trkpt>
      <trkpt lat="45.96691" lon="4.00201">
        <ele>391</ele>
        <time>2023-11-07T14:19:50Z</time>
      </trkpt>
      <trkpt lat="45.96708" lon="4.00167">
        <ele>390</ele>
        <time>2023-11-07T14:20:10Z</time>
      </trkpt>
    </trkseg>
  </trk>
</gpx>